<?xml version="1.0" encoding="UTF-8" standalone="no" ?>
<gpx xmlns="http://www.topografix.com/GPX/1/1" xmlns:xsi="http://www.w3.org/2001/XMLSchema-instance" xsi:schemaLocation="http://www.topografix.com/GPX/1/1 http://www.topografix.com/GPX/1/1/gpx.xsd" version="1.1" creator="VisuGPX - https://www.visugpx.com">
  <metadata>
    <name>2011-03-27 La Voulte - 44kms</name>
    <desc><![CDATA[Superbe rando du cyclo que cette année 2011.
Le retour s\'est fait via l\'ancienne voie ferrée]]></desc>
  </metadata>
  <trk>
    <name><![CDATA[27 mars 2011 08:00:33]]></name>
    <cmt><![CDATA[27 mars 2011 08:00:33]]></cmt>
    <trkseg>
      <trkpt lat="44.8027" lon="4.78426">
        <ele>469</ele>
        <time>2011-03-27T06:00:34Z</time>
      </trkpt>
      <trkpt lat="44.803" lon="4.78465">
        <ele>313</ele>
        <time>2011-03-27T06:01:06Z</time>
      </trkpt>
      <trkpt lat="44.80314" lon="4.7846">
        <ele>311</ele>
        <time>2011-03-27T06:01:16Z</time>
      </trkpt>
      <trkpt lat="44.80319" lon="4.78446">
        <ele>307</ele>
        <time>2011-03-27T06:01:19Z</time>
      </trkpt>
      <trkpt lat="44.80327" lon="4.78425">
        <ele>284</ele>
        <time>2011-03-27T06:01:35Z</time>
      </trkpt>
      <trkpt lat="44.8033" lon="4.7843">
        <ele>279</ele>
        <time>2011-03-27T06:01:41Z</time>
      </trkpt>
      <trkpt lat="44.80327" lon="4.78435">
        <ele>277</ele>
        <time>2011-03-27T06:01:48Z</time>
      </trkpt>
      <trkpt lat="44.80323" lon="4.78432">
        <ele>273</ele>
        <time>2011-03-27T06:01:58Z</time>
      </trkpt>
      <trkpt lat="44.80318" lon="4.78433">
        <ele>234</ele>
        <time>2011-03-27T06:02:22Z</time>
      </trkpt>
      <trkpt lat="44.80321" lon="4.78441">
        <ele>216</ele>
        <time>2011-03-27T06:02:31Z</time>
      </trkpt>
      <trkpt lat="44.80328" lon="4.78468">
        <ele>190</ele>
        <time>2011-03-27T06:02:44Z</time>
      </trkpt>
      <trkpt lat="44.80324" lon="4.78474">
        <ele>181</ele>
        <time>2011-03-27T06:02:57Z</time>
      </trkpt>
      <trkpt lat="44.80291" lon="4.78517">
        <ele>144</ele>
        <time>2011-03-27T06:03:29Z</time>
      </trkpt>
      <trkpt lat="44.80268" lon="4.78547">
        <ele>133</ele>
        <time>2011-03-27T06:03:45Z</time>
      </trkpt>
      <trkpt lat="44.80272" lon="4.7856">
        <ele>129</ele>
        <time>2011-03-27T06:03:51Z</time>
      </trkpt>
      <trkpt lat="44.80327" lon="4.78644">
        <ele>117</ele>
        <time>2011-03-27T06:04:21Z</time>
      </trkpt>
      <trkpt lat="44.80394" lon="4.78739">
        <ele>109</ele>
        <time>2011-03-27T06:04:53Z</time>
      </trkpt>
      <trkpt lat="44.80434" lon="4.78794">
        <ele>106</ele>
        <time>2011-03-27T06:05:13Z</time>
      </trkpt>
      <trkpt lat="44.80433" lon="4.78802">
        <ele>106</ele>
        <time>2011-03-27T06:05:15Z</time>
      </trkpt>
      <trkpt lat="44.8038" lon="4.78888">
        <ele>103</ele>
        <time>2011-03-27T06:05:45Z</time>
      </trkpt>
      <trkpt lat="44.80381" lon="4.78903">
        <ele>102</ele>
        <time>2011-03-27T06:05:49Z</time>
      </trkpt>
      <trkpt lat="44.80384" lon="4.78956">
        <ele>97</ele>
        <time>2011-03-27T06:05:57Z</time>
      </trkpt>
      <trkpt lat="44.80383" lon="4.78972">
        <ele>97</ele>
        <time>2011-03-27T06:05:59Z</time>
      </trkpt>
      <trkpt lat="44.80402" lon="4.79052">
        <ele>98</ele>
        <time>2011-03-27T06:06:13Z</time>
      </trkpt>
      <trkpt lat="44.8042" lon="4.79067">
        <ele>98</ele>
        <time>2011-03-27T06:06:19Z</time>
      </trkpt>
      <trkpt lat="44.80482" lon="4.79111">
        <ele>100</ele>
        <time>2011-03-27T06:06:49Z</time>
      </trkpt>
      <trkpt lat="44.80561" lon="4.79228">
        <ele>101</ele>
        <time>2011-03-27T06:07:21Z</time>
      </trkpt>
      <trkpt lat="44.80638" lon="4.79341">
        <ele>103</ele>
        <time>2011-03-27T06:07:52Z</time>
      </trkpt>
      <trkpt lat="44.80642" lon="4.79348">
        <ele>103</ele>
        <time>2011-03-27T06:07:54Z</time>
      </trkpt>
      <trkpt lat="44.8064" lon="4.79357">
        <ele>103</ele>
        <time>2011-03-27T06:07:56Z</time>
      </trkpt>
      <trkpt lat="44.80596" lon="4.79455">
        <ele>104</ele>
        <time>2011-03-27T06:08:18Z</time>
      </trkpt>
      <trkpt lat="44.80586" lon="4.7946">
        <ele>104</ele>
        <time>2011-03-27T06:08:22Z</time>
      </trkpt>
      <trkpt lat="44.80579" lon="4.79453">
        <ele>104</ele>
        <time>2011-03-27T06:08:25Z</time>
      </trkpt>
      <trkpt lat="44.80553" lon="4.79445">
        <ele>104</ele>
        <time>2011-03-27T06:08:35Z</time>
      </trkpt>
      <trkpt lat="44.80543" lon="4.79449">
        <ele>104</ele>
        <time>2011-03-27T06:08:38Z</time>
      </trkpt>
      <trkpt lat="44.8054" lon="4.79455">
        <ele>104</ele>
        <time>2011-03-27T06:08:40Z</time>
      </trkpt>
      <trkpt lat="44.80542" lon="4.7947">
        <ele>104</ele>
        <time>2011-03-27T06:08:44Z</time>
      </trkpt>
      <trkpt lat="44.8055" lon="4.79499">
        <ele>104</ele>
        <time>2011-03-27T06:08:50Z</time>
      </trkpt>
      <trkpt lat="44.80581" lon="4.79646">
        <ele>105</ele>
        <time>2011-03-27T06:09:21Z</time>
      </trkpt>
      <trkpt lat="44.80636" lon="4.79726">
        <ele>104</ele>
        <time>2011-03-27T06:09:53Z</time>
      </trkpt>
      <trkpt lat="44.80738" lon="4.79849">
        <ele>100</ele>
        <time>2011-03-27T06:10:23Z</time>
      </trkpt>
      <trkpt lat="44.80831" lon="4.79926">
        <ele>100</ele>
        <time>2011-03-27T06:10:54Z</time>
      </trkpt>
      <trkpt lat="44.80944" lon="4.80016">
        <ele>101</ele>
        <time>2011-03-27T06:11:25Z</time>
      </trkpt>
      <trkpt lat="44.81049" lon="4.80063">
        <ele>101</ele>
        <time>2011-03-27T06:11:56Z</time>
      </trkpt>
      <trkpt lat="44.81126" lon="4.80073">
        <ele>101</ele>
        <time>2011-03-27T06:12:19Z</time>
      </trkpt>
      <trkpt lat="44.8115" lon="4.80078">
        <ele>103</ele>
        <time>2011-03-27T06:12:25Z</time>
      </trkpt>
      <trkpt lat="44.81279" lon="4.80086">
        <ele>104</ele>
        <time>2011-03-27T06:12:58Z</time>
      </trkpt>
      <trkpt lat="44.81401" lon="4.80105">
        <ele>103</ele>
        <time>2011-03-27T06:13:29Z</time>
      </trkpt>
      <trkpt lat="44.81518" lon="4.80123">
        <ele>103</ele>
        <time>2011-03-27T06:14:01Z</time>
      </trkpt>
      <trkpt lat="44.81638" lon="4.80134">
        <ele>102</ele>
        <time>2011-03-27T06:14:32Z</time>
      </trkpt>
      <trkpt lat="44.81762" lon="4.80134">
        <ele>102</ele>
        <time>2011-03-27T06:15:03Z</time>
      </trkpt>
      <trkpt lat="44.81893" lon="4.80121">
        <ele>105</ele>
        <time>2011-03-27T06:15:33Z</time>
      </trkpt>
      <trkpt lat="44.81959" lon="4.80112">
        <ele>105</ele>
        <time>2011-03-27T06:15:49Z</time>
      </trkpt>
      <trkpt lat="44.82075" lon="4.80095">
        <ele>101</ele>
        <time>2011-03-27T06:16:19Z</time>
      </trkpt>
      <trkpt lat="44.82135" lon="4.80075">
        <ele>102</ele>
        <time>2011-03-27T06:16:34Z</time>
      </trkpt>
      <trkpt lat="44.8216" lon="4.80063">
        <ele>106</ele>
        <time>2011-03-27T06:16:40Z</time>
      </trkpt>
      <trkpt lat="44.8227" lon="4.79968">
        <ele>106</ele>
        <time>2011-03-27T06:17:12Z</time>
      </trkpt>
      <trkpt lat="44.82278" lon="4.79958">
        <ele>106</ele>
        <time>2011-03-27T06:17:15Z</time>
      </trkpt>
      <trkpt lat="44.82285" lon="4.79956">
        <ele>106</ele>
        <time>2011-03-27T06:17:17Z</time>
      </trkpt>
      <trkpt lat="44.82345" lon="4.79883">
        <ele>106</ele>
        <time>2011-03-27T06:17:39Z</time>
      </trkpt>
      <trkpt lat="44.82375" lon="4.79805">
        <ele>106</ele>
        <time>2011-03-27T06:18:04Z</time>
      </trkpt>
      <trkpt lat="44.82385" lon="4.79804">
        <ele>106</ele>
        <time>2011-03-27T06:18:10Z</time>
      </trkpt>
      <trkpt lat="44.82391" lon="4.79817">
        <ele>106</ele>
        <time>2011-03-27T06:18:14Z</time>
      </trkpt>
      <trkpt lat="44.82458" lon="4.79947">
        <ele>109</ele>
        <time>2011-03-27T06:18:46Z</time>
      </trkpt>
      <trkpt lat="44.82479" lon="4.79988">
        <ele>109</ele>
        <time>2011-03-27T06:18:59Z</time>
      </trkpt>
      <trkpt lat="44.82473" lon="4.79996">
        <ele>109</ele>
        <time>2011-03-27T06:19:03Z</time>
      </trkpt>
      <trkpt lat="44.82464" lon="4.8">
        <ele>109</ele>
        <time>2011-03-27T06:19:07Z</time>
      </trkpt>
      <trkpt lat="44.82469" lon="4.79989">
        <ele>110</ele>
        <time>2011-03-27T06:19:12Z</time>
      </trkpt>
      <trkpt lat="44.82499" lon="4.79943">
        <ele>109</ele>
        <time>2011-03-27T06:19:26Z</time>
      </trkpt>
      <trkpt lat="44.82502" lon="4.79937">
        <ele>108</ele>
        <time>2011-03-27T06:19:27Z</time>
      </trkpt>
      <trkpt lat="44.8251" lon="4.7992">
        <ele>108</ele>
        <time>2011-03-27T06:19:31Z</time>
      </trkpt>
      <trkpt lat="44.82522" lon="4.79855">
        <ele>102</ele>
        <time>2011-03-27T06:19:41Z</time>
      </trkpt>
      <trkpt lat="44.82539" lon="4.79786">
        <ele>102</ele>
        <time>2011-03-27T06:20:00Z</time>
      </trkpt>
      <trkpt lat="44.82549" lon="4.79783">
        <ele>102</ele>
        <time>2011-03-27T06:20:05Z</time>
      </trkpt>
      <trkpt lat="44.82616" lon="4.79788">
        <ele>103</ele>
        <time>2011-03-27T06:20:33Z</time>
      </trkpt>
      <trkpt lat="44.82629" lon="4.79777">
        <ele>104</ele>
        <time>2011-03-27T06:20:43Z</time>
      </trkpt>
      <trkpt lat="44.82663" lon="4.79698">
        <ele>108</ele>
        <time>2011-03-27T06:21:13Z</time>
      </trkpt>
      <trkpt lat="44.82674" lon="4.79642">
        <ele>110</ele>
        <time>2011-03-27T06:21:30Z</time>
      </trkpt>
      <trkpt lat="44.82715" lon="4.79542">
        <ele>117</ele>
        <time>2011-03-27T06:21:45Z</time>
      </trkpt>
      <trkpt lat="44.82764" lon="4.79365">
        <ele>116</ele>
        <time>2011-03-27T06:22:19Z</time>
      </trkpt>
      <trkpt lat="44.82792" lon="4.79234">
        <ele>116</ele>
        <time>2011-03-27T06:22:50Z</time>
      </trkpt>
      <trkpt lat="44.82811" lon="4.79129">
        <ele>117</ele>
        <time>2011-03-27T06:23:21Z</time>
      </trkpt>
      <trkpt lat="44.82832" lon="4.79085">
        <ele>118</ele>
        <time>2011-03-27T06:23:47Z</time>
      </trkpt>
      <trkpt lat="44.82831" lon="4.79084">
        <ele>120</ele>
        <time>2011-03-27T06:25:56Z</time>
      </trkpt>
      <trkpt lat="44.82836" lon="4.79082">
        <ele>121</ele>
        <time>2011-03-27T06:26:06Z</time>
      </trkpt>
      <trkpt lat="44.82878" lon="4.79056">
        <ele>123</ele>
        <time>2011-03-27T06:26:28Z</time>
      </trkpt>
      <trkpt lat="44.8288" lon="4.79047">
        <ele>123</ele>
        <time>2011-03-27T06:26:31Z</time>
      </trkpt>
      <trkpt lat="44.82878" lon="4.79039">
        <ele>124</ele>
        <time>2011-03-27T06:26:34Z</time>
      </trkpt>
      <trkpt lat="44.82863" lon="4.79017">
        <ele>125</ele>
        <time>2011-03-27T06:26:44Z</time>
      </trkpt>
      <trkpt lat="44.82855" lon="4.78948">
        <ele>127</ele>
        <time>2011-03-27T06:27:06Z</time>
      </trkpt>
      <trkpt lat="44.82859" lon="4.78929">
        <ele>128</ele>
        <time>2011-03-27T06:27:12Z</time>
      </trkpt>
      <trkpt lat="44.82913" lon="4.78889">
        <ele>130</ele>
        <time>2011-03-27T06:27:39Z</time>
      </trkpt>
      <trkpt lat="44.82982" lon="4.78887">
        <ele>133</ele>
        <time>2011-03-27T06:28:10Z</time>
      </trkpt>
      <trkpt lat="44.8305" lon="4.78866">
        <ele>137</ele>
        <time>2011-03-27T06:28:42Z</time>
      </trkpt>
      <trkpt lat="44.83115" lon="4.78903">
        <ele>142</ele>
        <time>2011-03-27T06:29:14Z</time>
      </trkpt>
      <trkpt lat="44.83183" lon="4.78927">
        <ele>145</ele>
        <time>2011-03-27T06:29:45Z</time>
      </trkpt>
      <trkpt lat="44.83247" lon="4.78922">
        <ele>148</ele>
        <time>2011-03-27T06:30:16Z</time>
      </trkpt>
      <trkpt lat="44.83313" lon="4.78891">
        <ele>151</ele>
        <time>2011-03-27T06:30:47Z</time>
      </trkpt>
      <trkpt lat="44.83377" lon="4.78856">
        <ele>156</ele>
        <time>2011-03-27T06:31:18Z</time>
      </trkpt>
      <trkpt lat="44.83396" lon="4.78834">
        <ele>158</ele>
        <time>2011-03-27T06:31:29Z</time>
      </trkpt>
      <trkpt lat="44.83397" lon="4.78826">
        <ele>159</ele>
        <time>2011-03-27T06:31:32Z</time>
      </trkpt>
      <trkpt lat="44.83395" lon="4.7882">
        <ele>159</ele>
        <time>2011-03-27T06:31:35Z</time>
      </trkpt>
      <trkpt lat="44.8339" lon="4.78817">
        <ele>160</ele>
        <time>2011-03-27T06:31:38Z</time>
      </trkpt>
      <trkpt lat="44.83324" lon="4.78824">
        <ele>165</ele>
        <time>2011-03-27T06:32:09Z</time>
      </trkpt>
      <trkpt lat="44.83261" lon="4.78828">
        <ele>168</ele>
        <time>2011-03-27T06:32:39Z</time>
      </trkpt>
      <trkpt lat="44.83195" lon="4.78815">
        <ele>170</ele>
        <time>2011-03-27T06:33:10Z</time>
      </trkpt>
      <trkpt lat="44.83138" lon="4.78769">
        <ele>174</ele>
        <time>2011-03-27T06:33:41Z</time>
      </trkpt>
      <trkpt lat="44.83086" lon="4.78717">
        <ele>177</ele>
        <time>2011-03-27T06:34:11Z</time>
      </trkpt>
      <trkpt lat="44.83081" lon="4.78711">
        <ele>177</ele>
        <time>2011-03-27T06:34:14Z</time>
      </trkpt>
      <trkpt lat="44.83079" lon="4.78704">
        <ele>178</ele>
        <time>2011-03-27T06:34:17Z</time>
      </trkpt>
      <trkpt lat="44.83078" lon="4.78677">
        <ele>179</ele>
        <time>2011-03-27T06:34:26Z</time>
      </trkpt>
      <trkpt lat="44.83093" lon="4.78622">
        <ele>182</ele>
        <time>2011-03-27T06:34:47Z</time>
      </trkpt>
      <trkpt lat="44.83078" lon="4.78534">
        <ele>186</ele>
        <time>2011-03-27T06:35:18Z</time>
      </trkpt>
      <trkpt lat="44.83106" lon="4.78493">
        <ele>188</ele>
        <time>2011-03-27T06:35:39Z</time>
      </trkpt>
      <trkpt lat="44.83106" lon="4.78484">
        <ele>189</ele>
        <time>2011-03-27T06:35:42Z</time>
      </trkpt>
      <trkpt lat="44.83105" lon="4.78409">
        <ele>195</ele>
        <time>2011-03-27T06:36:11Z</time>
      </trkpt>
      <trkpt lat="44.83145" lon="4.7836">
        <ele>198</ele>
        <time>2011-03-27T06:36:38Z</time>
      </trkpt>
      <trkpt lat="44.83201" lon="4.78329">
        <ele>202</ele>
        <time>2011-03-27T06:37:09Z</time>
      </trkpt>
      <trkpt lat="44.83201" lon="4.7832">
        <ele>203</ele>
        <time>2011-03-27T06:37:13Z</time>
      </trkpt>
      <trkpt lat="44.83198" lon="4.78312">
        <ele>203</ele>
        <time>2011-03-27T06:37:16Z</time>
      </trkpt>
      <trkpt lat="44.83171" lon="4.78277">
        <ele>206</ele>
        <time>2011-03-27T06:37:33Z</time>
      </trkpt>
      <trkpt lat="44.83171" lon="4.7826">
        <ele>208</ele>
        <time>2011-03-27T06:37:39Z</time>
      </trkpt>
      <trkpt lat="44.83176" lon="4.78246">
        <ele>209</ele>
        <time>2011-03-27T06:37:45Z</time>
      </trkpt>
      <trkpt lat="44.83236" lon="4.78177">
        <ele>215</ele>
        <time>2011-03-27T06:38:18Z</time>
      </trkpt>
      <trkpt lat="44.83286" lon="4.78126">
        <ele>220</ele>
        <time>2011-03-27T06:38:48Z</time>
      </trkpt>
      <trkpt lat="44.83291" lon="4.78113">
        <ele>221</ele>
        <time>2011-03-27T06:38:54Z</time>
      </trkpt>
      <trkpt lat="44.83288" lon="4.78106">
        <ele>222</ele>
        <time>2011-03-27T06:38:57Z</time>
      </trkpt>
      <trkpt lat="44.83246" lon="4.78043">
        <ele>227</ele>
        <time>2011-03-27T06:39:29Z</time>
      </trkpt>
      <trkpt lat="44.83252" lon="4.77997">
        <ele>229</ele>
        <time>2011-03-27T06:39:46Z</time>
      </trkpt>
      <trkpt lat="44.83294" lon="4.77937">
        <ele>234</ele>
        <time>2011-03-27T06:40:19Z</time>
      </trkpt>
      <trkpt lat="44.83302" lon="4.77927">
        <ele>235</ele>
        <time>2011-03-27T06:40:25Z</time>
      </trkpt>
      <trkpt lat="44.83305" lon="4.77913">
        <ele>236</ele>
        <time>2011-03-27T06:40:32Z</time>
      </trkpt>
      <trkpt lat="44.83325" lon="4.77845">
        <ele>240</ele>
        <time>2011-03-27T06:41:02Z</time>
      </trkpt>
      <trkpt lat="44.83357" lon="4.77775">
        <ele>243</ele>
        <time>2011-03-27T06:41:34Z</time>
      </trkpt>
      <trkpt lat="44.83401" lon="4.77721">
        <ele>247</ele>
        <time>2011-03-27T06:42:05Z</time>
      </trkpt>
      <trkpt lat="44.83457" lon="4.77724">
        <ele>251</ele>
        <time>2011-03-27T06:42:36Z</time>
      </trkpt>
      <trkpt lat="44.83504" lon="4.77768">
        <ele>254</ele>
        <time>2011-03-27T06:43:09Z</time>
      </trkpt>
      <trkpt lat="44.83546" lon="4.77821">
        <ele>257</ele>
        <time>2011-03-27T06:43:41Z</time>
      </trkpt>
      <trkpt lat="44.83603" lon="4.77836">
        <ele>260</ele>
        <time>2011-03-27T06:44:12Z</time>
      </trkpt>
      <trkpt lat="44.83662" lon="4.77858">
        <ele>264</ele>
        <time>2011-03-27T06:44:46Z</time>
      </trkpt>
      <trkpt lat="44.8372" lon="4.77866">
        <ele>268</ele>
        <time>2011-03-27T06:45:17Z</time>
      </trkpt>
      <trkpt lat="44.83729" lon="4.77876">
        <ele>268</ele>
        <time>2011-03-27T06:45:23Z</time>
      </trkpt>
      <trkpt lat="44.83735" lon="4.77877">
        <ele>269</ele>
        <time>2011-03-27T06:45:27Z</time>
      </trkpt>
      <trkpt lat="44.83785" lon="4.77849">
        <ele>273</ele>
        <time>2011-03-27T06:45:59Z</time>
      </trkpt>
      <trkpt lat="44.83828" lon="4.77854">
        <ele>276</ele>
        <time>2011-03-27T06:46:22Z</time>
      </trkpt>
      <trkpt lat="44.83876" lon="4.77815">
        <ele>280</ele>
        <time>2011-03-27T06:46:52Z</time>
      </trkpt>
      <trkpt lat="44.8393" lon="4.77801">
        <ele>285</ele>
        <time>2011-03-27T06:47:22Z</time>
      </trkpt>
      <trkpt lat="44.83941" lon="4.77796">
        <ele>286</ele>
        <time>2011-03-27T06:47:28Z</time>
      </trkpt>
      <trkpt lat="44.83989" lon="4.77766">
        <ele>290</ele>
        <time>2011-03-27T06:47:59Z</time>
      </trkpt>
      <trkpt lat="44.84034" lon="4.77722">
        <ele>294</ele>
        <time>2011-03-27T06:48:31Z</time>
      </trkpt>
      <trkpt lat="44.84083" lon="4.7769">
        <ele>298</ele>
        <time>2011-03-27T06:49:01Z</time>
      </trkpt>
      <trkpt lat="44.84137" lon="4.77663">
        <ele>301</ele>
        <time>2011-03-27T06:49:32Z</time>
      </trkpt>
      <trkpt lat="44.84156" lon="4.7765">
        <ele>303</ele>
        <time>2011-03-27T06:49:47Z</time>
      </trkpt>
      <trkpt lat="44.8416" lon="4.77648">
        <ele>304</ele>
        <time>2011-03-27T06:49:57Z</time>
      </trkpt>
      <trkpt lat="44.84166" lon="4.7765">
        <ele>304</ele>
        <time>2011-03-27T06:50:10Z</time>
      </trkpt>
      <trkpt lat="44.84165" lon="4.77649">
        <ele>305</ele>
        <time>2011-03-27T06:50:49Z</time>
      </trkpt>
      <trkpt lat="44.84161" lon="4.77651">
        <ele>305</ele>
        <time>2011-03-27T06:51:00Z</time>
      </trkpt>
      <trkpt lat="44.84148" lon="4.77669">
        <ele>307</ele>
        <time>2011-03-27T06:51:17Z</time>
      </trkpt>
      <trkpt lat="44.84143" lon="4.77686">
        <ele>310</ele>
        <time>2011-03-27T06:51:36Z</time>
      </trkpt>
      <trkpt lat="44.84144" lon="4.77693">
        <ele>311</ele>
        <time>2011-03-27T06:51:44Z</time>
      </trkpt>
      <trkpt lat="44.84141" lon="4.77698">
        <ele>311</ele>
        <time>2011-03-27T06:51:49Z</time>
      </trkpt>
      <trkpt lat="44.84136" lon="4.77702">
        <ele>312</ele>
        <time>2011-03-27T06:51:53Z</time>
      </trkpt>
      <trkpt lat="44.84133" lon="4.77704">
        <ele>313</ele>
        <time>2011-03-27T06:52:01Z</time>
      </trkpt>
      <trkpt lat="44.84129" lon="4.77707">
        <ele>313</ele>
        <time>2011-03-27T06:52:03Z</time>
      </trkpt>
      <trkpt lat="44.84115" lon="4.77734">
        <ele>318</ele>
        <time>2011-03-27T06:52:35Z</time>
      </trkpt>
      <trkpt lat="44.84097" lon="4.77763">
        <ele>324</ele>
        <time>2011-03-27T06:53:16Z</time>
      </trkpt>
      <trkpt lat="44.84081" lon="4.77789">
        <ele>330</ele>
        <time>2011-03-27T06:53:52Z</time>
      </trkpt>
      <trkpt lat="44.84077" lon="4.77799">
        <ele>332</ele>
        <time>2011-03-27T06:54:07Z</time>
      </trkpt>
      <trkpt lat="44.84076" lon="4.77793">
        <ele>333</ele>
        <time>2011-03-27T06:54:42Z</time>
      </trkpt>
      <trkpt lat="44.84084" lon="4.77792">
        <ele>336</ele>
        <time>2011-03-27T06:54:54Z</time>
      </trkpt>
      <trkpt lat="44.84111" lon="4.77792">
        <ele>341</ele>
        <time>2011-03-27T06:55:25Z</time>
      </trkpt>
      <trkpt lat="44.84132" lon="4.77791">
        <ele>345</ele>
        <time>2011-03-27T06:56:09Z</time>
      </trkpt>
      <trkpt lat="44.84153" lon="4.77787">
        <ele>347</ele>
        <time>2011-03-27T06:56:37Z</time>
      </trkpt>
      <trkpt lat="44.84181" lon="4.77786">
        <ele>351</ele>
        <time>2011-03-27T06:57:14Z</time>
      </trkpt>
      <trkpt lat="44.8419" lon="4.7778">
        <ele>353</ele>
        <time>2011-03-27T06:57:29Z</time>
      </trkpt>
      <trkpt lat="44.84216" lon="4.77781">
        <ele>359</ele>
        <time>2011-03-27T06:58:03Z</time>
      </trkpt>
      <trkpt lat="44.84225" lon="4.77784">
        <ele>360</ele>
        <time>2011-03-27T06:58:13Z</time>
      </trkpt>
      <trkpt lat="44.8423" lon="4.77784">
        <ele>361</ele>
        <time>2011-03-27T06:58:21Z</time>
      </trkpt>
      <trkpt lat="44.84232" lon="4.77778">
        <ele>364</ele>
        <time>2011-03-27T06:58:32Z</time>
      </trkpt>
      <trkpt lat="44.84238" lon="4.77779">
        <ele>366</ele>
        <time>2011-03-27T06:58:39Z</time>
      </trkpt>
      <trkpt lat="44.84263" lon="4.77779">
        <ele>373</ele>
        <time>2011-03-27T06:59:13Z</time>
      </trkpt>
      <trkpt lat="44.84297" lon="4.77774">
        <ele>379</ele>
        <time>2011-03-27T06:59:53Z</time>
      </trkpt>
      <trkpt lat="44.84306" lon="4.77773">
        <ele>380</ele>
        <time>2011-03-27T07:00:02Z</time>
      </trkpt>
      <trkpt lat="44.84335" lon="4.77768">
        <ele>387</ele>
        <time>2011-03-27T07:00:41Z</time>
      </trkpt>
      <trkpt lat="44.84345" lon="4.7777">
        <ele>389</ele>
        <time>2011-03-27T07:00:54Z</time>
      </trkpt>
      <trkpt lat="44.84349" lon="4.77778">
        <ele>392</ele>
        <time>2011-03-27T07:01:10Z</time>
      </trkpt>
      <trkpt lat="44.84346" lon="4.77788">
        <ele>393</ele>
        <time>2011-03-27T07:01:25Z</time>
      </trkpt>
      <trkpt lat="44.84352" lon="4.77791">
        <ele>395</ele>
        <time>2011-03-27T07:01:42Z</time>
      </trkpt>
      <trkpt lat="44.84358" lon="4.77791">
        <ele>397</ele>
        <time>2011-03-27T07:01:52Z</time>
      </trkpt>
      <trkpt lat="44.84361" lon="4.77791">
        <ele>400</ele>
        <time>2011-03-27T07:02:27Z</time>
      </trkpt>
      <trkpt lat="44.84359" lon="4.77798">
        <ele>402</ele>
        <time>2011-03-27T07:04:40Z</time>
      </trkpt>
      <trkpt lat="44.84365" lon="4.77795">
        <ele>404</ele>
        <time>2011-03-27T07:05:23Z</time>
      </trkpt>
      <trkpt lat="44.84419" lon="4.77745">
        <ele>408</ele>
        <time>2011-03-27T07:05:55Z</time>
      </trkpt>
      <trkpt lat="44.84446" lon="4.77687">
        <ele>411</ele>
        <time>2011-03-27T07:06:27Z</time>
      </trkpt>
      <trkpt lat="44.84448" lon="4.7763">
        <ele>415</ele>
        <time>2011-03-27T07:06:58Z</time>
      </trkpt>
      <trkpt lat="44.84463" lon="4.77574">
        <ele>419</ele>
        <time>2011-03-27T07:07:29Z</time>
      </trkpt>
      <trkpt lat="44.84485" lon="4.77515">
        <ele>424</ele>
        <time>2011-03-27T07:08:02Z</time>
      </trkpt>
      <trkpt lat="44.84511" lon="4.77469">
        <ele>428</ele>
        <time>2011-03-27T07:08:34Z</time>
      </trkpt>
      <trkpt lat="44.8454" lon="4.77426">
        <ele>431</ele>
        <time>2011-03-27T07:09:08Z</time>
      </trkpt>
      <trkpt lat="44.84551" lon="4.77415">
        <ele>433</ele>
        <time>2011-03-27T07:09:20Z</time>
      </trkpt>
      <trkpt lat="44.84556" lon="4.77401">
        <ele>435</ele>
        <time>2011-03-27T07:09:30Z</time>
      </trkpt>
      <trkpt lat="44.84561" lon="4.77399">
        <ele>436</ele>
        <time>2011-03-27T07:09:35Z</time>
      </trkpt>
      <trkpt lat="44.84609" lon="4.77395">
        <ele>441</ele>
        <time>2011-03-27T07:10:07Z</time>
      </trkpt>
      <trkpt lat="44.84661" lon="4.77365">
        <ele>444</ele>
        <time>2011-03-27T07:10:40Z</time>
      </trkpt>
      <trkpt lat="44.84723" lon="4.77326">
        <ele>447</ele>
        <time>2011-03-27T07:11:15Z</time>
      </trkpt>
      <trkpt lat="44.84767" lon="4.77265">
        <ele>450</ele>
        <time>2011-03-27T07:11:45Z</time>
      </trkpt>
      <trkpt lat="44.84813" lon="4.77191">
        <ele>453</ele>
        <time>2011-03-27T07:12:19Z</time>
      </trkpt>
      <trkpt lat="44.84846" lon="4.77177">
        <ele>455</ele>
        <time>2011-03-27T07:12:34Z</time>
      </trkpt>
      <trkpt lat="44.84905" lon="4.77224">
        <ele>461</ele>
        <time>2011-03-27T07:13:04Z</time>
      </trkpt>
      <trkpt lat="44.84972" lon="4.77261">
        <ele>466</ele>
        <time>2011-03-27T07:13:36Z</time>
      </trkpt>
      <trkpt lat="44.85007" lon="4.77285">
        <ele>468</ele>
        <time>2011-03-27T07:13:54Z</time>
      </trkpt>
      <trkpt lat="44.85011" lon="4.77279">
        <ele>468</ele>
        <time>2011-03-27T07:13:57Z</time>
      </trkpt>
      <trkpt lat="44.8502" lon="4.7719">
        <ele>472</ele>
        <time>2011-03-27T07:14:28Z</time>
      </trkpt>
      <trkpt lat="44.85024" lon="4.77117">
        <ele>475</ele>
        <time>2011-03-27T07:15:00Z</time>
      </trkpt>
      <trkpt lat="44.85027" lon="4.77057">
        <ele>478</ele>
        <time>2011-03-27T07:15:32Z</time>
      </trkpt>
      <trkpt lat="44.85021" lon="4.77">
        <ele>483</ele>
        <time>2011-03-27T07:16:05Z</time>
      </trkpt>
      <trkpt lat="44.85025" lon="4.76939">
        <ele>487</ele>
        <time>2011-03-27T07:16:37Z</time>
      </trkpt>
      <trkpt lat="44.85033" lon="4.76882">
        <ele>493</ele>
        <time>2011-03-27T07:17:12Z</time>
      </trkpt>
      <trkpt lat="44.85044" lon="4.76832">
        <ele>499</ele>
        <time>2011-03-27T07:17:46Z</time>
      </trkpt>
      <trkpt lat="44.85044" lon="4.76775">
        <ele>505</ele>
        <time>2011-03-27T07:18:20Z</time>
      </trkpt>
      <trkpt lat="44.85042" lon="4.76718">
        <ele>511</ele>
        <time>2011-03-27T07:18:52Z</time>
      </trkpt>
      <trkpt lat="44.85062" lon="4.76673">
        <ele>516</ele>
        <time>2011-03-27T07:19:23Z</time>
      </trkpt>
      <trkpt lat="44.85079" lon="4.76629">
        <ele>520</ele>
        <time>2011-03-27T07:19:55Z</time>
      </trkpt>
      <trkpt lat="44.85096" lon="4.76577">
        <ele>524</ele>
        <time>2011-03-27T07:20:29Z</time>
      </trkpt>
      <trkpt lat="44.85113" lon="4.76529">
        <ele>529</ele>
        <time>2011-03-27T07:21:01Z</time>
      </trkpt>
      <trkpt lat="44.85123" lon="4.76513">
        <ele>530</ele>
        <time>2011-03-27T07:21:13Z</time>
      </trkpt>
      <trkpt lat="44.85135" lon="4.76491">
        <ele>536</ele>
        <time>2011-03-27T07:21:44Z</time>
      </trkpt>
      <trkpt lat="44.85139" lon="4.76486">
        <ele>537</ele>
        <time>2011-03-27T07:21:52Z</time>
      </trkpt>
      <trkpt lat="44.8514" lon="4.76473">
        <ele>539</ele>
        <time>2011-03-27T07:22:04Z</time>
      </trkpt>
      <trkpt lat="44.85139" lon="4.76455">
        <ele>541</ele>
        <time>2011-03-27T07:22:23Z</time>
      </trkpt>
      <trkpt lat="44.85142" lon="4.76451">
        <ele>544</ele>
        <time>2011-03-27T07:23:36Z</time>
      </trkpt>
      <trkpt lat="44.85143" lon="4.76455">
        <ele>545</ele>
        <time>2011-03-27T07:24:04Z</time>
      </trkpt>
      <trkpt lat="44.85171" lon="4.76437">
        <ele>548</ele>
        <time>2011-03-27T07:24:38Z</time>
      </trkpt>
      <trkpt lat="44.85196" lon="4.76398">
        <ele>552</ele>
        <time>2011-03-27T07:25:09Z</time>
      </trkpt>
      <trkpt lat="44.85225" lon="4.76357">
        <ele>557</ele>
        <time>2011-03-27T07:25:41Z</time>
      </trkpt>
      <trkpt lat="44.85265" lon="4.76321">
        <ele>561</ele>
        <time>2011-03-27T07:26:13Z</time>
      </trkpt>
      <trkpt lat="44.85315" lon="4.76278">
        <ele>567</ele>
        <time>2011-03-27T07:26:48Z</time>
      </trkpt>
      <trkpt lat="44.85326" lon="4.76279">
        <ele>568</ele>
        <time>2011-03-27T07:26:54Z</time>
      </trkpt>
      <trkpt lat="44.85368" lon="4.76252">
        <ele>572</ele>
        <time>2011-03-27T07:27:25Z</time>
      </trkpt>
      <trkpt lat="44.85411" lon="4.76206">
        <ele>577</ele>
        <time>2011-03-27T07:27:55Z</time>
      </trkpt>
      <trkpt lat="44.85449" lon="4.76129">
        <ele>581</ele>
        <time>2011-03-27T07:28:26Z</time>
      </trkpt>
      <trkpt lat="44.85507" lon="4.76027">
        <ele>583</ele>
        <time>2011-03-27T07:28:58Z</time>
      </trkpt>
      <trkpt lat="44.85558" lon="4.75934">
        <ele>586</ele>
        <time>2011-03-27T07:29:30Z</time>
      </trkpt>
      <trkpt lat="44.85568" lon="4.75925">
        <ele>587</ele>
        <time>2011-03-27T07:29:37Z</time>
      </trkpt>
      <trkpt lat="44.85575" lon="4.75926">
        <ele>591</ele>
        <time>2011-03-27T07:31:18Z</time>
      </trkpt>
      <trkpt lat="44.85584" lon="4.75924">
        <ele>591</ele>
        <time>2011-03-27T07:31:21Z</time>
      </trkpt>
      <trkpt lat="44.85605" lon="4.75911">
        <ele>594</ele>
        <time>2011-03-27T07:31:26Z</time>
      </trkpt>
      <trkpt lat="44.85629" lon="4.75873">
        <ele>594</ele>
        <time>2011-03-27T07:31:31Z</time>
      </trkpt>
      <trkpt lat="44.8565" lon="4.75763">
        <ele>583</ele>
        <time>2011-03-27T07:31:45Z</time>
      </trkpt>
      <trkpt lat="44.85782" lon="4.75616">
        <ele>570</ele>
        <time>2011-03-27T07:32:08Z</time>
      </trkpt>
      <trkpt lat="44.85752" lon="4.75428">
        <ele>557</ele>
        <time>2011-03-27T07:32:38Z</time>
      </trkpt>
      <trkpt lat="44.85748" lon="4.75355">
        <ele>557</ele>
        <time>2011-03-27T07:33:09Z</time>
      </trkpt>
      <trkpt lat="44.85751" lon="4.75327">
        <ele>557</ele>
        <time>2011-03-27T07:33:20Z</time>
      </trkpt>
      <trkpt lat="44.85755" lon="4.7532">
        <ele>557</ele>
        <time>2011-03-27T07:33:24Z</time>
      </trkpt>
      <trkpt lat="44.85761" lon="4.75315">
        <ele>557</ele>
        <time>2011-03-27T07:33:29Z</time>
      </trkpt>
      <trkpt lat="44.85766" lon="4.75303">
        <ele>557</ele>
        <time>2011-03-27T07:33:35Z</time>
      </trkpt>
      <trkpt lat="44.85766" lon="4.75251">
        <ele>559</ele>
        <time>2011-03-27T07:34:05Z</time>
      </trkpt>
      <trkpt lat="44.85762" lon="4.75175">
        <ele>561</ele>
        <time>2011-03-27T07:34:41Z</time>
      </trkpt>
      <trkpt lat="44.85736" lon="4.75102">
        <ele>565</ele>
        <time>2011-03-27T07:35:17Z</time>
      </trkpt>
      <trkpt lat="44.8571" lon="4.7505">
        <ele>570</ele>
        <time>2011-03-27T07:35:52Z</time>
      </trkpt>
      <trkpt lat="44.85705" lon="4.75045">
        <ele>571</ele>
        <time>2011-03-27T07:35:56Z</time>
      </trkpt>
      <trkpt lat="44.85696" lon="4.75016">
        <ele>572</ele>
        <time>2011-03-27T07:36:11Z</time>
      </trkpt>
      <trkpt lat="44.85698" lon="4.75002">
        <ele>573</ele>
        <time>2011-03-27T07:36:20Z</time>
      </trkpt>
      <trkpt lat="44.85721" lon="4.74957">
        <ele>576</ele>
        <time>2011-03-27T07:36:50Z</time>
      </trkpt>
      <trkpt lat="44.85731" lon="4.74954">
        <ele>576</ele>
        <time>2011-03-27T07:36:58Z</time>
      </trkpt>
      <trkpt lat="44.85736" lon="4.74956">
        <ele>577</ele>
        <time>2011-03-27T07:37:02Z</time>
      </trkpt>
      <trkpt lat="44.85761" lon="4.7498">
        <ele>579</ele>
        <time>2011-03-27T07:37:26Z</time>
      </trkpt>
      <trkpt lat="44.85802" lon="4.74977">
        <ele>582</ele>
        <time>2011-03-27T07:37:58Z</time>
      </trkpt>
      <trkpt lat="44.85857" lon="4.74994">
        <ele>585</ele>
        <time>2011-03-27T07:38:31Z</time>
      </trkpt>
      <trkpt lat="44.85887" lon="4.75014">
        <ele>586</ele>
        <time>2011-03-27T07:38:42Z</time>
      </trkpt>
      <trkpt lat="44.85916" lon="4.75041">
        <ele>589</ele>
        <time>2011-03-27T07:38:50Z</time>
      </trkpt>
      <trkpt lat="44.85925" lon="4.75049">
        <ele>589</ele>
        <time>2011-03-27T07:38:52Z</time>
      </trkpt>
      <trkpt lat="44.86071" lon="4.75219">
        <ele>582</ele>
        <time>2011-03-27T07:39:24Z</time>
      </trkpt>
      <trkpt lat="44.86109" lon="4.75284">
        <ele>580</ele>
        <time>2011-03-27T07:39:47Z</time>
      </trkpt>
      <trkpt lat="44.86113" lon="4.75281">
        <ele>579</ele>
        <time>2011-03-27T07:40:31Z</time>
      </trkpt>
      <trkpt lat="44.86117" lon="4.75267">
        <ele>579</ele>
        <time>2011-03-27T07:40:39Z</time>
      </trkpt>
      <trkpt lat="44.86119" lon="4.75257">
        <ele>577</ele>
        <time>2011-03-27T07:40:41Z</time>
      </trkpt>
      <trkpt lat="44.86125" lon="4.7522">
        <ele>576</ele>
        <time>2011-03-27T07:40:50Z</time>
      </trkpt>
      <trkpt lat="44.86109" lon="4.75033">
        <ele>564</ele>
        <time>2011-03-27T07:41:16Z</time>
      </trkpt>
      <trkpt lat="44.86155" lon="4.74928">
        <ele>560</ele>
        <time>2011-03-27T07:41:35Z</time>
      </trkpt>
      <trkpt lat="44.86162" lon="4.74868">
        <ele>561</ele>
        <time>2011-03-27T07:41:44Z</time>
      </trkpt>
      <trkpt lat="44.86164" lon="4.74822">
        <ele>558</ele>
        <time>2011-03-27T07:41:51Z</time>
      </trkpt>
      <trkpt lat="44.86163" lon="4.74807">
        <ele>558</ele>
        <time>2011-03-27T07:41:54Z</time>
      </trkpt>
      <trkpt lat="44.86166" lon="4.74794">
        <ele>557</ele>
        <time>2011-03-27T07:42:01Z</time>
      </trkpt>
      <trkpt lat="44.86173" lon="4.74782">
        <ele>557</ele>
        <time>2011-03-27T07:42:05Z</time>
      </trkpt>
      <trkpt lat="44.86175" lon="4.7474">
        <ele>547</ele>
        <time>2011-03-27T07:42:15Z</time>
      </trkpt>
      <trkpt lat="44.86181" lon="4.74636">
        <ele>540</ele>
        <time>2011-03-27T07:42:46Z</time>
      </trkpt>
      <trkpt lat="44.86219" lon="4.74572">
        <ele>536</ele>
        <time>2011-03-27T07:43:05Z</time>
      </trkpt>
      <trkpt lat="44.86239" lon="4.74543">
        <ele>529</ele>
        <time>2011-03-27T07:43:11Z</time>
      </trkpt>
      <trkpt lat="44.86257" lon="4.74528">
        <ele>529</ele>
        <time>2011-03-27T07:43:22Z</time>
      </trkpt>
      <trkpt lat="44.86268" lon="4.74522">
        <ele>528</ele>
        <time>2011-03-27T07:43:25Z</time>
      </trkpt>
      <trkpt lat="44.86274" lon="4.7451">
        <ele>528</ele>
        <time>2011-03-27T07:43:29Z</time>
      </trkpt>
      <trkpt lat="44.86276" lon="4.74483">
        <ele>527</ele>
        <time>2011-03-27T07:43:42Z</time>
      </trkpt>
      <trkpt lat="44.86271" lon="4.74457">
        <ele>527</ele>
        <time>2011-03-27T07:43:58Z</time>
      </trkpt>
      <trkpt lat="44.86267" lon="4.74415">
        <ele>529</ele>
        <time>2011-03-27T07:44:22Z</time>
      </trkpt>
      <trkpt lat="44.86293" lon="4.74359">
        <ele>533</ele>
        <time>2011-03-27T07:44:52Z</time>
      </trkpt>
      <trkpt lat="44.86332" lon="4.74307">
        <ele>533</ele>
        <time>2011-03-27T07:45:27Z</time>
      </trkpt>
      <trkpt lat="44.86342" lon="4.74277">
        <ele>534</ele>
        <time>2011-03-27T07:45:43Z</time>
      </trkpt>
      <trkpt lat="44.86338" lon="4.74239">
        <ele>535</ele>
        <time>2011-03-27T07:45:56Z</time>
      </trkpt>
      <trkpt lat="44.8637" lon="4.74171">
        <ele>536</ele>
        <time>2011-03-27T07:46:27Z</time>
      </trkpt>
      <trkpt lat="44.8638" lon="4.74146">
        <ele>537</ele>
        <time>2011-03-27T07:46:38Z</time>
      </trkpt>
      <trkpt lat="44.86372" lon="4.74053">
        <ele>540</ele>
        <time>2011-03-27T07:47:13Z</time>
      </trkpt>
      <trkpt lat="44.86373" lon="4.7396">
        <ele>542</ele>
        <time>2011-03-27T07:47:45Z</time>
      </trkpt>
      <trkpt lat="44.86393" lon="4.73875">
        <ele>543</ele>
        <time>2011-03-27T07:48:15Z</time>
      </trkpt>
      <trkpt lat="44.86392" lon="4.7387">
        <ele>544</ele>
        <time>2011-03-27T07:48:23Z</time>
      </trkpt>
      <trkpt lat="44.86388" lon="4.73868">
        <ele>546</ele>
        <time>2011-03-27T07:49:09Z</time>
      </trkpt>
      <trkpt lat="44.86395" lon="4.73858">
        <ele>548</ele>
        <time>2011-03-27T07:49:44Z</time>
      </trkpt>
      <trkpt lat="44.86393" lon="4.73853">
        <ele>550</ele>
        <time>2011-03-27T07:50:09Z</time>
      </trkpt>
      <trkpt lat="44.86386" lon="4.73853">
        <ele>552</ele>
        <time>2011-03-27T07:51:27Z</time>
      </trkpt>
      <trkpt lat="44.86388" lon="4.73862">
        <ele>551</ele>
        <time>2011-03-27T07:51:52Z</time>
      </trkpt>
      <trkpt lat="44.86388" lon="4.73866">
        <ele>549</ele>
        <time>2011-03-27T07:52:46Z</time>
      </trkpt>
      <trkpt lat="44.86393" lon="4.7386">
        <ele>549</ele>
        <time>2011-03-27T07:52:58Z</time>
      </trkpt>
      <trkpt lat="44.86542" lon="4.7339">
        <ele>571</ele>
        <time>2011-03-27T08:05:07Z</time>
      </trkpt>
      <trkpt lat="44.86545" lon="4.73381">
        <ele>573</ele>
        <time>2011-03-27T08:05:53Z</time>
      </trkpt>
      <trkpt lat="44.86576" lon="4.73265">
        <ele>576</ele>
        <time>2011-03-27T08:06:27Z</time>
      </trkpt>
      <trkpt lat="44.86581" lon="4.73248">
        <ele>577</ele>
        <time>2011-03-27T08:06:33Z</time>
      </trkpt>
      <trkpt lat="44.86594" lon="4.73233">
        <ele>577</ele>
        <time>2011-03-27T08:06:42Z</time>
      </trkpt>
      <trkpt lat="44.86637" lon="4.73199">
        <ele>580</ele>
        <time>2011-03-27T08:07:16Z</time>
      </trkpt>
      <trkpt lat="44.86639" lon="4.73192">
        <ele>581</ele>
        <time>2011-03-27T08:07:21Z</time>
      </trkpt>
      <trkpt lat="44.86641" lon="4.73137">
        <ele>586</ele>
        <time>2011-03-27T08:07:57Z</time>
      </trkpt>
      <trkpt lat="44.86642" lon="4.73087">
        <ele>591</ele>
        <time>2011-03-27T08:08:30Z</time>
      </trkpt>
      <trkpt lat="44.86648" lon="4.73043">
        <ele>595</ele>
        <time>2011-03-27T08:09:04Z</time>
      </trkpt>
      <trkpt lat="44.86648" lon="4.73035">
        <ele>596</ele>
        <time>2011-03-27T08:09:09Z</time>
      </trkpt>
      <trkpt lat="44.86655" lon="4.73008">
        <ele>601</ele>
        <time>2011-03-27T08:09:41Z</time>
      </trkpt>
      <trkpt lat="44.86664" lon="4.72987">
        <ele>604</ele>
        <time>2011-03-27T08:10:00Z</time>
      </trkpt>
      <trkpt lat="44.86664" lon="4.7298">
        <ele>604</ele>
        <time>2011-03-27T08:10:08Z</time>
      </trkpt>
      <trkpt lat="44.86668" lon="4.72966">
        <ele>605</ele>
        <time>2011-03-27T08:10:17Z</time>
      </trkpt>
      <trkpt lat="44.86668" lon="4.72907">
        <ele>610</ele>
        <time>2011-03-27T08:10:47Z</time>
      </trkpt>
      <trkpt lat="44.86679" lon="4.72851">
        <ele>615</ele>
        <time>2011-03-27T08:11:18Z</time>
      </trkpt>
      <trkpt lat="44.86693" lon="4.72804">
        <ele>619</ele>
        <time>2011-03-27T08:11:48Z</time>
      </trkpt>
      <trkpt lat="44.86706" lon="4.72777">
        <ele>624</ele>
        <time>2011-03-27T08:12:28Z</time>
      </trkpt>
      <trkpt lat="44.8671" lon="4.72768">
        <ele>624</ele>
        <time>2011-03-27T08:12:36Z</time>
      </trkpt>
      <trkpt lat="44.86727" lon="4.72743">
        <ele>626</ele>
        <time>2011-03-27T08:13:12Z</time>
      </trkpt>
      <trkpt lat="44.86751" lon="4.72691">
        <ele>632</ele>
        <time>2011-03-27T08:13:46Z</time>
      </trkpt>
      <trkpt lat="44.86791" lon="4.72617">
        <ele>635</ele>
        <time>2011-03-27T08:14:16Z</time>
      </trkpt>
      <trkpt lat="44.86855" lon="4.72539">
        <ele>637</ele>
        <time>2011-03-27T08:14:46Z</time>
      </trkpt>
      <trkpt lat="44.8691" lon="4.72462">
        <ele>640</ele>
        <time>2011-03-27T08:15:17Z</time>
      </trkpt>
      <trkpt lat="44.86962" lon="4.72437">
        <ele>642</ele>
        <time>2011-03-27T08:15:47Z</time>
      </trkpt>
      <trkpt lat="44.87003" lon="4.72394">
        <ele>645</ele>
        <time>2011-03-27T08:16:17Z</time>
      </trkpt>
      <trkpt lat="44.87034" lon="4.7233">
        <ele>647</ele>
        <time>2011-03-27T08:16:48Z</time>
      </trkpt>
      <trkpt lat="44.87071" lon="4.72253">
        <ele>650</ele>
        <time>2011-03-27T08:17:19Z</time>
      </trkpt>
      <trkpt lat="44.8711" lon="4.72203">
        <ele>653</ele>
        <time>2011-03-27T08:17:50Z</time>
      </trkpt>
      <trkpt lat="44.87157" lon="4.72146">
        <ele>656</ele>
        <time>2011-03-27T08:18:21Z</time>
      </trkpt>
      <trkpt lat="44.8719" lon="4.72064">
        <ele>658</ele>
        <time>2011-03-27T08:18:52Z</time>
      </trkpt>
      <trkpt lat="44.87213" lon="4.71976">
        <ele>659</ele>
        <time>2011-03-27T08:19:12Z</time>
      </trkpt>
      <trkpt lat="44.87222" lon="4.71957">
        <ele>661</ele>
        <time>2011-03-27T08:19:16Z</time>
      </trkpt>
      <trkpt lat="44.87225" lon="4.71947">
        <ele>661</ele>
        <time>2011-03-27T08:19:18Z</time>
      </trkpt>
      <trkpt lat="44.87229" lon="4.71907">
        <ele>661</ele>
        <time>2011-03-27T08:19:31Z</time>
      </trkpt>
      <trkpt lat="44.87247" lon="4.71889">
        <ele>661</ele>
        <time>2011-03-27T08:19:43Z</time>
      </trkpt>
      <trkpt lat="44.87292" lon="4.71836">
        <ele>661</ele>
        <time>2011-03-27T08:20:10Z</time>
      </trkpt>
      <trkpt lat="44.87313" lon="4.71758">
        <ele>662</ele>
        <time>2011-03-27T08:20:41Z</time>
      </trkpt>
      <trkpt lat="44.87347" lon="4.71691">
        <ele>665</ele>
        <time>2011-03-27T08:21:14Z</time>
      </trkpt>
      <trkpt lat="44.87398" lon="4.71621">
        <ele>666</ele>
        <time>2011-03-27T08:21:45Z</time>
      </trkpt>
      <trkpt lat="44.87447" lon="4.71583">
        <ele>666</ele>
        <time>2011-03-27T08:22:17Z</time>
      </trkpt>
      <trkpt lat="44.87488" lon="4.71569">
        <ele>669</ele>
        <time>2011-03-27T08:22:52Z</time>
      </trkpt>
      <trkpt lat="44.87518" lon="4.71557">
        <ele>674</ele>
        <time>2011-03-27T08:23:34Z</time>
      </trkpt>
      <trkpt lat="44.87523" lon="4.71557">
        <ele>675</ele>
        <time>2011-03-27T08:23:41Z</time>
      </trkpt>
      <trkpt lat="44.87548" lon="4.71536">
        <ele>678</ele>
        <time>2011-03-27T08:24:10Z</time>
      </trkpt>
      <trkpt lat="44.87554" lon="4.71525">
        <ele>680</ele>
        <time>2011-03-27T08:24:21Z</time>
      </trkpt>
      <trkpt lat="44.8755" lon="4.7152">
        <ele>681</ele>
        <time>2011-03-27T08:24:33Z</time>
      </trkpt>
      <trkpt lat="44.87522" lon="4.7151">
        <ele>685</ele>
        <time>2011-03-27T08:25:03Z</time>
      </trkpt>
      <trkpt lat="44.87519" lon="4.715">
        <ele>686</ele>
        <time>2011-03-27T08:25:14Z</time>
      </trkpt>
      <trkpt lat="44.87521" lon="4.7149">
        <ele>689</ele>
        <time>2011-03-27T08:25:37Z</time>
      </trkpt>
      <trkpt lat="44.87536" lon="4.71478">
        <ele>692</ele>
        <time>2011-03-27T08:26:02Z</time>
      </trkpt>
      <trkpt lat="44.87534" lon="4.71469">
        <ele>693</ele>
        <time>2011-03-27T08:26:16Z</time>
      </trkpt>
      <trkpt lat="44.87528" lon="4.71452">
        <ele>694</ele>
        <time>2011-03-27T08:26:34Z</time>
      </trkpt>
      <trkpt lat="44.87524" lon="4.71439">
        <ele>697</ele>
        <time>2011-03-27T08:26:45Z</time>
      </trkpt>
      <trkpt lat="44.87528" lon="4.71426">
        <ele>699</ele>
        <time>2011-03-27T08:26:54Z</time>
      </trkpt>
      <trkpt lat="44.87539" lon="4.71391">
        <ele>704</ele>
        <time>2011-03-27T08:27:26Z</time>
      </trkpt>
      <trkpt lat="44.87565" lon="4.71359">
        <ele>708</ele>
        <time>2011-03-27T08:27:59Z</time>
      </trkpt>
      <trkpt lat="44.87586" lon="4.71319">
        <ele>713</ele>
        <time>2011-03-27T08:28:34Z</time>
      </trkpt>
      <trkpt lat="44.8761" lon="4.71276">
        <ele>717</ele>
        <time>2011-03-27T08:29:11Z</time>
      </trkpt>
      <trkpt lat="44.8763" lon="4.71252">
        <ele>722</ele>
        <time>2011-03-27T08:29:41Z</time>
      </trkpt>
      <trkpt lat="44.87654" lon="4.71232">
        <ele>729</ele>
        <time>2011-03-27T08:30:12Z</time>
      </trkpt>
      <trkpt lat="44.87666" lon="4.71221">
        <ele>732</ele>
        <time>2011-03-27T08:30:26Z</time>
      </trkpt>
      <trkpt lat="44.87697" lon="4.71217">
        <ele>737</ele>
        <time>2011-03-27T08:30:57Z</time>
      </trkpt>
      <trkpt lat="44.87719" lon="4.71227">
        <ele>742</ele>
        <time>2011-03-27T08:31:19Z</time>
      </trkpt>
      <trkpt lat="44.87723" lon="4.71222">
        <ele>743</ele>
        <time>2011-03-27T08:31:31Z</time>
      </trkpt>
      <trkpt lat="44.87725" lon="4.71228">
        <ele>744</ele>
        <time>2011-03-27T08:31:44Z</time>
      </trkpt>
      <trkpt lat="44.87724" lon="4.71235">
        <ele>745</ele>
        <time>2011-03-27T08:32:05Z</time>
      </trkpt>
      <trkpt lat="44.87734" lon="4.71222">
        <ele>748</ele>
        <time>2011-03-27T08:32:25Z</time>
      </trkpt>
      <trkpt lat="44.87745" lon="4.71218">
        <ele>750</ele>
        <time>2011-03-27T08:32:40Z</time>
      </trkpt>
      <trkpt lat="44.87756" lon="4.71221">
        <ele>752</ele>
        <time>2011-03-27T08:33:00Z</time>
      </trkpt>
      <trkpt lat="44.87767" lon="4.71218">
        <ele>756</ele>
        <time>2011-03-27T08:33:23Z</time>
      </trkpt>
      <trkpt lat="44.87767" lon="4.71224">
        <ele>760</ele>
        <time>2011-03-27T08:33:57Z</time>
      </trkpt>
      <trkpt lat="44.87772" lon="4.71222">
        <ele>760</ele>
        <time>2011-03-27T08:34:09Z</time>
      </trkpt>
      <trkpt lat="44.87825" lon="4.71218">
        <ele>764</ele>
        <time>2011-03-27T08:34:40Z</time>
      </trkpt>
      <trkpt lat="44.87887" lon="4.71222">
        <ele>767</ele>
        <time>2011-03-27T08:35:13Z</time>
      </trkpt>
      <trkpt lat="44.87951" lon="4.71232">
        <ele>770</ele>
        <time>2011-03-27T08:35:46Z</time>
      </trkpt>
      <trkpt lat="44.87964" lon="4.71225">
        <ele>771</ele>
        <time>2011-03-27T08:35:55Z</time>
      </trkpt>
      <trkpt lat="44.87969" lon="4.71216">
        <ele>772</ele>
        <time>2011-03-27T08:36:06Z</time>
      </trkpt>
      <trkpt lat="44.8797" lon="4.71223">
        <ele>772</ele>
        <time>2011-03-27T08:36:20Z</time>
      </trkpt>
      <trkpt lat="44.87969" lon="4.71222">
        <ele>772</ele>
        <time>2011-03-27T08:36:58Z</time>
      </trkpt>
      <trkpt lat="44.87969" lon="4.7122">
        <ele>774</ele>
        <time>2011-03-27T08:37:37Z</time>
      </trkpt>
      <trkpt lat="44.87964" lon="4.71215">
        <ele>775</ele>
        <time>2011-03-27T08:37:55Z</time>
      </trkpt>
      <trkpt lat="44.87896" lon="4.71173">
        <ele>777</ele>
        <time>2011-03-27T08:38:26Z</time>
      </trkpt>
      <trkpt lat="44.87821" lon="4.71138">
        <ele>777</ele>
        <time>2011-03-27T08:38:56Z</time>
      </trkpt>
      <trkpt lat="44.87757" lon="4.71101">
        <ele>778</ele>
        <time>2011-03-27T08:39:29Z</time>
      </trkpt>
      <trkpt lat="44.87698" lon="4.71047">
        <ele>781</ele>
        <time>2011-03-27T08:40:00Z</time>
      </trkpt>
      <trkpt lat="44.87694" lon="4.71045">
        <ele>782</ele>
        <time>2011-03-27T08:40:01Z</time>
      </trkpt>
      <trkpt lat="44.87648" lon="4.71035">
        <ele>785</ele>
        <time>2011-03-27T08:40:09Z</time>
      </trkpt>
      <trkpt lat="44.87491" lon="4.70981">
        <ele>775</ele>
        <time>2011-03-27T08:40:40Z</time>
      </trkpt>
      <trkpt lat="44.87372" lon="4.70865">
        <ele>768</ele>
        <time>2011-03-27T08:41:10Z</time>
      </trkpt>
      <trkpt lat="44.87368" lon="4.70862">
        <ele>767</ele>
        <time>2011-03-27T08:41:11Z</time>
      </trkpt>
      <trkpt lat="44.8731" lon="4.70797">
        <ele>766</ele>
        <time>2011-03-27T08:41:43Z</time>
      </trkpt>
      <trkpt lat="44.87266" lon="4.70736">
        <ele>765</ele>
        <time>2011-03-27T08:42:22Z</time>
      </trkpt>
      <trkpt lat="44.87248" lon="4.70704">
        <ele>766</ele>
        <time>2011-03-27T08:42:42Z</time>
      </trkpt>
      <trkpt lat="44.87248" lon="4.70695">
        <ele>767</ele>
        <time>2011-03-27T08:43:25Z</time>
      </trkpt>
      <trkpt lat="44.87244" lon="4.70688">
        <ele>768</ele>
        <time>2011-03-27T08:44:13Z</time>
      </trkpt>
      <trkpt lat="44.87238" lon="4.70679">
        <ele>768</ele>
        <time>2011-03-27T08:44:16Z</time>
      </trkpt>
      <trkpt lat="44.872" lon="4.70636">
        <ele>773</ele>
        <time>2011-03-27T08:44:23Z</time>
      </trkpt>
      <trkpt lat="44.87107" lon="4.70439">
        <ele>772</ele>
        <time>2011-03-27T08:44:49Z</time>
      </trkpt>
      <trkpt lat="44.87106" lon="4.70419">
        <ele>771</ele>
        <time>2011-03-27T08:44:51Z</time>
      </trkpt>
      <trkpt lat="44.87105" lon="4.70362">
        <ele>762</ele>
        <time>2011-03-27T08:44:59Z</time>
      </trkpt>
      <trkpt lat="44.87096" lon="4.70358">
        <ele>761</ele>
        <time>2011-03-27T08:45:05Z</time>
      </trkpt>
      <trkpt lat="44.87074" lon="4.70319">
        <ele>757</ele>
        <time>2011-03-27T08:45:30Z</time>
      </trkpt>
      <trkpt lat="44.87051" lon="4.70246">
        <ele>753</ele>
        <time>2011-03-27T08:45:59Z</time>
      </trkpt>
      <trkpt lat="44.87053" lon="4.70231">
        <ele>752</ele>
        <time>2011-03-27T08:46:05Z</time>
      </trkpt>
      <trkpt lat="44.87044" lon="4.70201">
        <ele>751</ele>
        <time>2011-03-27T08:46:22Z</time>
      </trkpt>
      <trkpt lat="44.87026" lon="4.70167">
        <ele>751</ele>
        <time>2011-03-27T08:46:48Z</time>
      </trkpt>
      <trkpt lat="44.87016" lon="4.70162">
        <ele>751</ele>
        <time>2011-03-27T08:46:54Z</time>
      </trkpt>
      <trkpt lat="44.8701" lon="4.70151">
        <ele>751</ele>
        <time>2011-03-27T08:47:00Z</time>
      </trkpt>
      <trkpt lat="44.87009" lon="4.70144">
        <ele>751</ele>
        <time>2011-03-27T08:47:04Z</time>
      </trkpt>
      <trkpt lat="44.87001" lon="4.70136">
        <ele>751</ele>
        <time>2011-03-27T08:47:11Z</time>
      </trkpt>
      <trkpt lat="44.86965" lon="4.70118">
        <ele>751</ele>
        <time>2011-03-27T08:47:24Z</time>
      </trkpt>
      <trkpt lat="44.86948" lon="4.70123">
        <ele>751</ele>
        <time>2011-03-27T08:47:30Z</time>
      </trkpt>
      <trkpt lat="44.86943" lon="4.7012">
        <ele>751</ele>
        <time>2011-03-27T08:47:32Z</time>
      </trkpt>
      <trkpt lat="44.8694" lon="4.70115">
        <ele>751</ele>
        <time>2011-03-27T08:47:34Z</time>
      </trkpt>
      <trkpt lat="44.86939" lon="4.70108">
        <ele>750</ele>
        <time>2011-03-27T08:47:37Z</time>
      </trkpt>
      <trkpt lat="44.86944" lon="4.70034">
        <ele>747</ele>
        <time>2011-03-27T08:48:11Z</time>
      </trkpt>
      <trkpt lat="44.86934" lon="4.69945">
        <ele>746</ele>
        <time>2011-03-27T08:48:33Z</time>
      </trkpt>
      <trkpt lat="44.86926" lon="4.69946">
        <ele>746</ele>
        <time>2011-03-27T08:48:37Z</time>
      </trkpt>
      <trkpt lat="44.86844" lon="4.69926">
        <ele>738</ele>
        <time>2011-03-27T08:48:53Z</time>
      </trkpt>
      <trkpt lat="44.86778" lon="4.69925">
        <ele>737</ele>
        <time>2011-03-27T08:49:08Z</time>
      </trkpt>
      <trkpt lat="44.86741" lon="4.69935">
        <ele>733</ele>
        <time>2011-03-27T08:49:16Z</time>
      </trkpt>
      <trkpt lat="44.86624" lon="4.6998">
        <ele>723</ele>
        <time>2011-03-27T08:49:35Z</time>
      </trkpt>
      <trkpt lat="44.86618" lon="4.69974">
        <ele>723</ele>
        <time>2011-03-27T08:49:37Z</time>
      </trkpt>
      <trkpt lat="44.86617" lon="4.69962">
        <ele>721</ele>
        <time>2011-03-27T08:49:39Z</time>
      </trkpt>
      <trkpt lat="44.86616" lon="4.69937">
        <ele>717</ele>
        <time>2011-03-27T08:49:43Z</time>
      </trkpt>
      <trkpt lat="44.8661" lon="4.69933">
        <ele>716</ele>
        <time>2011-03-27T08:49:45Z</time>
      </trkpt>
      <trkpt lat="44.86562" lon="4.69942">
        <ele>710</ele>
        <time>2011-03-27T08:49:56Z</time>
      </trkpt>
      <trkpt lat="44.86519" lon="4.6995">
        <ele>710</ele>
        <time>2011-03-27T08:50:07Z</time>
      </trkpt>
      <trkpt lat="44.86508" lon="4.69951">
        <ele>708</ele>
        <time>2011-03-27T08:50:10Z</time>
      </trkpt>
      <trkpt lat="44.8649" lon="4.69973">
        <ele>708</ele>
        <time>2011-03-27T08:50:16Z</time>
      </trkpt>
      <trkpt lat="44.8646" lon="4.70048">
        <ele>704</ele>
        <time>2011-03-27T08:50:34Z</time>
      </trkpt>
      <trkpt lat="44.86447" lon="4.70075">
        <ele>700</ele>
        <time>2011-03-27T08:50:39Z</time>
      </trkpt>
      <trkpt lat="44.86435" lon="4.70079">
        <ele>699</ele>
        <time>2011-03-27T08:50:45Z</time>
      </trkpt>
      <trkpt lat="44.8643" lon="4.70083">
        <ele>698</ele>
        <time>2011-03-27T08:51:11Z</time>
      </trkpt>
      <trkpt lat="44.86437" lon="4.70072">
        <ele>690</ele>
        <time>2011-03-27T08:51:52Z</time>
      </trkpt>
      <trkpt lat="44.8645" lon="4.69909">
        <ele>658</ele>
        <time>2011-03-27T08:52:24Z</time>
      </trkpt>
      <trkpt lat="44.86453" lon="4.69831">
        <ele>650</ele>
        <time>2011-03-27T08:52:36Z</time>
      </trkpt>
      <trkpt lat="44.86441" lon="4.69807">
        <ele>649</ele>
        <time>2011-03-27T08:52:44Z</time>
      </trkpt>
      <trkpt lat="44.86432" lon="4.6979">
        <ele>649</ele>
        <time>2011-03-27T08:52:48Z</time>
      </trkpt>
      <trkpt lat="44.86396" lon="4.69714">
        <ele>642</ele>
        <time>2011-03-27T08:53:02Z</time>
      </trkpt>
      <trkpt lat="44.8639" lon="4.69724">
        <ele>642</ele>
        <time>2011-03-27T08:53:08Z</time>
      </trkpt>
      <trkpt lat="44.86384" lon="4.69716">
        <ele>640</ele>
        <time>2011-03-27T08:53:15Z</time>
      </trkpt>
      <trkpt lat="44.86375" lon="4.69692">
        <ele>639</ele>
        <time>2011-03-27T08:53:25Z</time>
      </trkpt>
      <trkpt lat="44.86374" lon="4.69686">
        <ele>637</ele>
        <time>2011-03-27T08:54:06Z</time>
      </trkpt>
      <trkpt lat="44.86368" lon="4.69669">
        <ele>635</ele>
        <time>2011-03-27T08:54:10Z</time>
      </trkpt>
      <trkpt lat="44.86364" lon="4.69658">
        <ele>632</ele>
        <time>2011-03-27T08:54:12Z</time>
      </trkpt>
      <trkpt lat="44.86322" lon="4.69589">
        <ele>624</ele>
        <time>2011-03-27T08:54:44Z</time>
      </trkpt>
      <trkpt lat="44.8632" lon="4.69582">
        <ele>623</ele>
        <time>2011-03-27T08:54:48Z</time>
      </trkpt>
      <trkpt lat="44.86321" lon="4.69575">
        <ele>619</ele>
        <time>2011-03-27T08:55:21Z</time>
      </trkpt>
      <trkpt lat="44.86309" lon="4.69502">
        <ele>609</ele>
        <time>2011-03-27T08:55:51Z</time>
      </trkpt>
      <trkpt lat="44.86307" lon="4.69468">
        <ele>599</ele>
        <time>2011-03-27T08:56:31Z</time>
      </trkpt>
      <trkpt lat="44.86309" lon="4.69432">
        <ele>594</ele>
        <time>2011-03-27T08:57:02Z</time>
      </trkpt>
      <trkpt lat="44.86309" lon="4.69419">
        <ele>594</ele>
        <time>2011-03-27T08:57:12Z</time>
      </trkpt>
      <trkpt lat="44.86312" lon="4.69412">
        <ele>594</ele>
        <time>2011-03-27T08:57:17Z</time>
      </trkpt>
      <trkpt lat="44.86313" lon="4.69415">
        <ele>592</ele>
        <time>2011-03-27T08:57:38Z</time>
      </trkpt>
      <trkpt lat="44.86306" lon="4.69416">
        <ele>591</ele>
        <time>2011-03-27T08:57:50Z</time>
      </trkpt>
      <trkpt lat="44.86304" lon="4.6942">
        <ele>589</ele>
        <time>2011-03-27T08:57:58Z</time>
      </trkpt>
      <trkpt lat="44.863" lon="4.69422">
        <ele>587</ele>
        <time>2011-03-27T08:58:07Z</time>
      </trkpt>
      <trkpt lat="44.86289" lon="4.6942">
        <ele>585</ele>
        <time>2011-03-27T08:58:16Z</time>
      </trkpt>
      <trkpt lat="44.86265" lon="4.69395">
        <ele>581</ele>
        <time>2011-03-27T08:58:29Z</time>
      </trkpt>
      <trkpt lat="44.86259" lon="4.6938">
        <ele>579</ele>
        <time>2011-03-27T08:58:35Z</time>
      </trkpt>
      <trkpt lat="44.86255" lon="4.69377">
        <ele>578</ele>
        <time>2011-03-27T08:58:39Z</time>
      </trkpt>
      <trkpt lat="44.86249" lon="4.69378">
        <ele>575</ele>
        <time>2011-03-27T08:58:53Z</time>
      </trkpt>
      <trkpt lat="44.86242" lon="4.69386">
        <ele>572</ele>
        <time>2011-03-27T08:59:20Z</time>
      </trkpt>
      <trkpt lat="44.86238" lon="4.69397">
        <ele>570</ele>
        <time>2011-03-27T08:59:45Z</time>
      </trkpt>
      <trkpt lat="44.86187" lon="4.69431">
        <ele>566</ele>
        <time>2011-03-27T09:00:18Z</time>
      </trkpt>
      <trkpt lat="44.86124" lon="4.69495">
        <ele>562</ele>
        <time>2011-03-27T09:00:49Z</time>
      </trkpt>
      <trkpt lat="44.86095" lon="4.69516">
        <ele>561</ele>
        <time>2011-03-27T09:01:07Z</time>
      </trkpt>
      <trkpt lat="44.86091" lon="4.69512">
        <ele>561</ele>
        <time>2011-03-27T09:01:15Z</time>
      </trkpt>
      <trkpt lat="44.86089" lon="4.69516">
        <ele>561</ele>
        <time>2011-03-27T09:01:56Z</time>
      </trkpt>
      <trkpt lat="44.86088" lon="4.69522">
        <ele>561</ele>
        <time>2011-03-27T09:02:00Z</time>
      </trkpt>
      <trkpt lat="44.86083" lon="4.69528">
        <ele>561</ele>
        <time>2011-03-27T09:02:03Z</time>
      </trkpt>
      <trkpt lat="44.86036" lon="4.69545">
        <ele>561</ele>
        <time>2011-03-27T09:02:34Z</time>
      </trkpt>
      <trkpt lat="44.85976" lon="4.69547">
        <ele>560</ele>
        <time>2011-03-27T09:03:07Z</time>
      </trkpt>
      <trkpt lat="44.85922" lon="4.69569">
        <ele>559</ele>
        <time>2011-03-27T09:03:38Z</time>
      </trkpt>
      <trkpt lat="44.85881" lon="4.69575">
        <ele>558</ele>
        <time>2011-03-27T09:04:10Z</time>
      </trkpt>
      <trkpt lat="44.85835" lon="4.69587">
        <ele>559</ele>
        <time>2011-03-27T09:04:43Z</time>
      </trkpt>
      <trkpt lat="44.85804" lon="4.69594">
        <ele>561</ele>
        <time>2011-03-27T09:05:06Z</time>
      </trkpt>
      <trkpt lat="44.858" lon="4.69589">
        <ele>562</ele>
        <time>2011-03-27T09:05:09Z</time>
      </trkpt>
      <trkpt lat="44.85804" lon="4.69583">
        <ele>563</ele>
        <time>2011-03-27T09:05:16Z</time>
      </trkpt>
      <trkpt lat="44.85813" lon="4.69578">
        <ele>565</ele>
        <time>2011-03-27T09:05:27Z</time>
      </trkpt>
      <trkpt lat="44.8582" lon="4.6956">
        <ele>569</ele>
        <time>2011-03-27T09:05:53Z</time>
      </trkpt>
      <trkpt lat="44.85818" lon="4.69552">
        <ele>572</ele>
        <time>2011-03-27T09:06:17Z</time>
      </trkpt>
      <trkpt lat="44.8582" lon="4.69544">
        <ele>573</ele>
        <time>2011-03-27T09:06:28Z</time>
      </trkpt>
      <trkpt lat="44.85826" lon="4.69538">
        <ele>575</ele>
        <time>2011-03-27T09:06:39Z</time>
      </trkpt>
      <trkpt lat="44.8583" lon="4.69521">
        <ele>577</ele>
        <time>2011-03-27T09:07:17Z</time>
      </trkpt>
      <trkpt lat="44.85832" lon="4.69515">
        <ele>577</ele>
        <time>2011-03-27T09:07:23Z</time>
      </trkpt>
      <trkpt lat="44.85837" lon="4.69515">
        <ele>577</ele>
        <time>2011-03-27T09:07:33Z</time>
      </trkpt>
      <trkpt lat="44.85835" lon="4.69515">
        <ele>586</ele>
        <time>2011-03-27T09:09:22Z</time>
      </trkpt>
      <trkpt lat="44.85834" lon="4.69509">
        <ele>586</ele>
        <time>2011-03-27T09:09:27Z</time>
      </trkpt>
      <trkpt lat="44.85836" lon="4.69507">
        <ele>587</ele>
        <time>2011-03-27T09:09:50Z</time>
      </trkpt>
      <trkpt lat="44.85867" lon="4.69489">
        <ele>593</ele>
        <time>2011-03-27T09:10:21Z</time>
      </trkpt>
      <trkpt lat="44.85888" lon="4.69472">
        <ele>595</ele>
        <time>2011-03-27T09:10:45Z</time>
      </trkpt>
      <trkpt lat="44.85887" lon="4.69462">
        <ele>597</ele>
        <time>2011-03-27T09:10:55Z</time>
      </trkpt>
      <trkpt lat="44.8589" lon="4.69449">
        <ele>598</ele>
        <time>2011-03-27T09:11:09Z</time>
      </trkpt>
      <trkpt lat="44.85889" lon="4.69434">
        <ele>599</ele>
        <time>2011-03-27T09:11:19Z</time>
      </trkpt>
      <trkpt lat="44.85896" lon="4.69408">
        <ele>602</ele>
        <time>2011-03-27T09:11:42Z</time>
      </trkpt>
      <trkpt lat="44.85916" lon="4.69377">
        <ele>605</ele>
        <time>2011-03-27T09:12:12Z</time>
      </trkpt>
      <trkpt lat="44.85935" lon="4.69345">
        <ele>608</ele>
        <time>2011-03-27T09:12:37Z</time>
      </trkpt>
      <trkpt lat="44.85942" lon="4.69335">
        <ele>608</ele>
        <time>2011-03-27T09:12:47Z</time>
      </trkpt>
      <trkpt lat="44.85959" lon="4.69296">
        <ele>611</ele>
        <time>2011-03-27T09:13:08Z</time>
      </trkpt>
      <trkpt lat="44.85974" lon="4.6926">
        <ele>616</ele>
        <time>2011-03-27T09:13:39Z</time>
      </trkpt>
      <trkpt lat="44.85995" lon="4.69217">
        <ele>622</ele>
        <time>2011-03-27T09:14:12Z</time>
      </trkpt>
      <trkpt lat="44.86007" lon="4.69167">
        <ele>628</ele>
        <time>2011-03-27T09:14:47Z</time>
      </trkpt>
      <trkpt lat="44.86018" lon="4.69118">
        <ele>631</ele>
        <time>2011-03-27T09:15:21Z</time>
      </trkpt>
      <trkpt lat="44.86018" lon="4.6907">
        <ele>636</ele>
        <time>2011-03-27T09:15:54Z</time>
      </trkpt>
      <trkpt lat="44.86025" lon="4.69049">
        <ele>639</ele>
        <time>2011-03-27T09:16:31Z</time>
      </trkpt>
      <trkpt lat="44.86028" lon="4.69038">
        <ele>643</ele>
        <time>2011-03-27T09:16:49Z</time>
      </trkpt>
      <trkpt lat="44.86025" lon="4.69031">
        <ele>644</ele>
        <time>2011-03-27T09:16:55Z</time>
      </trkpt>
      <trkpt lat="44.86027" lon="4.68996">
        <ele>650</ele>
        <time>2011-03-27T09:17:33Z</time>
      </trkpt>
      <trkpt lat="44.86024" lon="4.68965">
        <ele>656</ele>
        <time>2011-03-27T09:18:06Z</time>
      </trkpt>
      <trkpt lat="44.86023" lon="4.68926">
        <ele>660</ele>
        <time>2011-03-27T09:18:47Z</time>
      </trkpt>
      <trkpt lat="44.86011" lon="4.68888">
        <ele>666</ele>
        <time>2011-03-27T09:19:20Z</time>
      </trkpt>
      <trkpt lat="44.86012" lon="4.68849">
        <ele>669</ele>
        <time>2011-03-27T09:19:53Z</time>
      </trkpt>
      <trkpt lat="44.86005" lon="4.68797">
        <ele>674</ele>
        <time>2011-03-27T09:20:36Z</time>
      </trkpt>
      <trkpt lat="44.86" lon="4.68796">
        <ele>674</ele>
        <time>2011-03-27T09:20:42Z</time>
      </trkpt>
      <trkpt lat="44.86004" lon="4.68798">
        <ele>678</ele>
        <time>2011-03-27T09:21:31Z</time>
      </trkpt>
      <trkpt lat="44.86003" lon="4.68805">
        <ele>679</ele>
        <time>2011-03-27T09:21:46Z</time>
      </trkpt>
      <trkpt lat="44.86008" lon="4.68799">
        <ele>682</ele>
        <time>2011-03-27T09:22:18Z</time>
      </trkpt>
      <trkpt lat="44.86007" lon="4.68794">
        <ele>683</ele>
        <time>2011-03-27T09:23:59Z</time>
      </trkpt>
      <trkpt lat="44.86004" lon="4.68788">
        <ele>684</ele>
        <time>2011-03-27T09:24:54Z</time>
      </trkpt>
      <trkpt lat="44.86006" lon="4.68782">
        <ele>685</ele>
        <time>2011-03-27T09:24:58Z</time>
      </trkpt>
      <trkpt lat="44.86006" lon="4.68775">
        <ele>685</ele>
        <time>2011-03-27T09:25:02Z</time>
      </trkpt>
      <trkpt lat="44.86008" lon="4.68768">
        <ele>685</ele>
        <time>2011-03-27T09:25:07Z</time>
      </trkpt>
      <trkpt lat="44.86015" lon="4.6876">
        <ele>685</ele>
        <time>2011-03-27T09:25:13Z</time>
      </trkpt>
      <trkpt lat="44.8606" lon="4.68748">
        <ele>686</ele>
        <time>2011-03-27T09:25:35Z</time>
      </trkpt>
      <trkpt lat="44.8615" lon="4.68785">
        <ele>686</ele>
        <time>2011-03-27T09:26:07Z</time>
      </trkpt>
      <trkpt lat="44.86259" lon="4.68749">
        <ele>684</ele>
        <time>2011-03-27T09:26:39Z</time>
      </trkpt>
      <trkpt lat="44.86347" lon="4.68743">
        <ele>682</ele>
        <time>2011-03-27T09:27:02Z</time>
      </trkpt>
      <trkpt lat="44.8637" lon="4.68678">
        <ele>682</ele>
        <time>2011-03-27T09:27:22Z</time>
      </trkpt>
      <trkpt lat="44.8638" lon="4.68593">
        <ele>681</ele>
        <time>2011-03-27T09:27:53Z</time>
      </trkpt>
      <trkpt lat="44.8638" lon="4.68581">
        <ele>681</ele>
        <time>2011-03-27T09:28:02Z</time>
      </trkpt>
      <trkpt lat="44.86383" lon="4.68579">
        <ele>681</ele>
        <time>2011-03-27T09:28:18Z</time>
      </trkpt>
      <trkpt lat="44.86388" lon="4.68577">
        <ele>681</ele>
        <time>2011-03-27T09:28:25Z</time>
      </trkpt>
      <trkpt lat="44.86389" lon="4.68577">
        <ele>681</ele>
        <time>2011-03-27T09:28:52Z</time>
      </trkpt>
      <trkpt lat="44.86381" lon="4.68574">
        <ele>681</ele>
        <time>2011-03-27T09:29:08Z</time>
      </trkpt>
      <trkpt lat="44.86381" lon="4.68559">
        <ele>681</ele>
        <time>2011-03-27T09:29:11Z</time>
      </trkpt>
      <trkpt lat="44.86409" lon="4.6838">
        <ele>677</ele>
        <time>2011-03-27T09:29:42Z</time>
      </trkpt>
      <trkpt lat="44.86347" lon="4.68216">
        <ele>673</ele>
        <time>2011-03-27T09:30:11Z</time>
      </trkpt>
      <trkpt lat="44.86297" lon="4.68166">
        <ele>671</ele>
        <time>2011-03-27T09:30:30Z</time>
      </trkpt>
      <trkpt lat="44.86271" lon="4.68111">
        <ele>666</ele>
        <time>2011-03-27T09:30:41Z</time>
      </trkpt>
      <trkpt lat="44.8627" lon="4.68095">
        <ele>666</ele>
        <time>2011-03-27T09:30:43Z</time>
      </trkpt>
      <trkpt lat="44.86274" lon="4.68081">
        <ele>666</ele>
        <time>2011-03-27T09:30:45Z</time>
      </trkpt>
      <trkpt lat="44.86292" lon="4.68054">
        <ele>667</ele>
        <time>2011-03-27T09:30:51Z</time>
      </trkpt>
      <trkpt lat="44.86289" lon="4.6804">
        <ele>667</ele>
        <time>2011-03-27T09:30:54Z</time>
      </trkpt>
      <trkpt lat="44.86284" lon="4.68025">
        <ele>667</ele>
        <time>2011-03-27T09:30:57Z</time>
      </trkpt>
      <trkpt lat="44.86271" lon="4.68">
        <ele>661</ele>
        <time>2011-03-27T09:31:03Z</time>
      </trkpt>
      <trkpt lat="44.86104" lon="4.67869">
        <ele>647</ele>
        <time>2011-03-27T09:31:34Z</time>
      </trkpt>
      <trkpt lat="44.86038" lon="4.67837">
        <ele>643</ele>
        <time>2011-03-27T09:31:44Z</time>
      </trkpt>
      <trkpt lat="44.85816" lon="4.67812">
        <ele>621</ele>
        <time>2011-03-27T09:32:14Z</time>
      </trkpt>
      <trkpt lat="44.85774" lon="4.67811">
        <ele>622</ele>
        <time>2011-03-27T09:32:20Z</time>
      </trkpt>
      <trkpt lat="44.8557" lon="4.67829">
        <ele>599</ele>
        <time>2011-03-27T09:32:51Z</time>
      </trkpt>
      <trkpt lat="44.85483" lon="4.67822">
        <ele>583</ele>
        <time>2011-03-27T09:33:08Z</time>
      </trkpt>
      <trkpt lat="44.85453" lon="4.67791">
        <ele>578</ele>
        <time>2011-03-27T09:33:16Z</time>
      </trkpt>
      <trkpt lat="44.85432" lon="4.67784">
        <ele>578</ele>
        <time>2011-03-27T09:33:22Z</time>
      </trkpt>
      <trkpt lat="44.85347" lon="4.67808">
        <ele>574</ele>
        <time>2011-03-27T09:33:53Z</time>
      </trkpt>
      <trkpt lat="44.85239" lon="4.67786">
        <ele>570</ele>
        <time>2011-03-27T09:34:26Z</time>
      </trkpt>
      <trkpt lat="44.85162" lon="4.67816">
        <ele>570</ele>
        <time>2011-03-27T09:34:57Z</time>
      </trkpt>
      <trkpt lat="44.85104" lon="4.67822">
        <ele>571</ele>
        <time>2011-03-27T09:35:28Z</time>
      </trkpt>
      <trkpt lat="44.85076" lon="4.67823">
        <ele>573</ele>
        <time>2011-03-27T09:35:45Z</time>
      </trkpt>
      <trkpt lat="44.8507" lon="4.67836">
        <ele>573</ele>
        <time>2011-03-27T09:35:53Z</time>
      </trkpt>
      <trkpt lat="44.85057" lon="4.67899">
        <ele>578</ele>
        <time>2011-03-27T09:36:26Z</time>
      </trkpt>
      <trkpt lat="44.85051" lon="4.67942">
        <ele>580</ele>
        <time>2011-03-27T09:36:53Z</time>
      </trkpt>
      <trkpt lat="44.85042" lon="4.67967">
        <ele>582</ele>
        <time>2011-03-27T09:37:07Z</time>
      </trkpt>
      <trkpt lat="44.85048" lon="4.68026">
        <ele>587</ele>
        <time>2011-03-27T09:37:40Z</time>
      </trkpt>
      <trkpt lat="44.85055" lon="4.68106">
        <ele>590</ele>
        <time>2011-03-27T09:38:06Z</time>
      </trkpt>
      <trkpt lat="44.85047" lon="4.6812">
        <ele>590</ele>
        <time>2011-03-27T09:38:10Z</time>
      </trkpt>
      <trkpt lat="44.85001" lon="4.6817">
        <ele>592</ele>
        <time>2011-03-27T09:38:42Z</time>
      </trkpt>
      <trkpt lat="44.84972" lon="4.68197">
        <ele>595</ele>
        <time>2011-03-27T09:39:15Z</time>
      </trkpt>
      <trkpt lat="44.8497" lon="4.68204">
        <ele>595</ele>
        <time>2011-03-27T09:39:19Z</time>
      </trkpt>
      <trkpt lat="44.84966" lon="4.68208">
        <ele>596</ele>
        <time>2011-03-27T09:39:23Z</time>
      </trkpt>
      <trkpt lat="44.84966" lon="4.68215">
        <ele>597</ele>
        <time>2011-03-27T09:39:28Z</time>
      </trkpt>
      <trkpt lat="44.84963" lon="4.6822">
        <ele>597</ele>
        <time>2011-03-27T09:39:33Z</time>
      </trkpt>
      <trkpt lat="44.84958" lon="4.68224">
        <ele>598</ele>
        <time>2011-03-27T09:39:39Z</time>
      </trkpt>
      <trkpt lat="44.84954" lon="4.68247">
        <ele>599</ele>
        <time>2011-03-27T09:39:52Z</time>
      </trkpt>
      <trkpt lat="44.84923" lon="4.68322">
        <ele>600</ele>
        <time>2011-03-27T09:40:23Z</time>
      </trkpt>
      <trkpt lat="44.8489" lon="4.68349">
        <ele>601</ele>
        <time>2011-03-27T09:40:40Z</time>
      </trkpt>
      <trkpt lat="44.84872" lon="4.6835">
        <ele>602</ele>
        <time>2011-03-27T09:40:49Z</time>
      </trkpt>
      <trkpt lat="44.84865" lon="4.68358">
        <ele>603</ele>
        <time>2011-03-27T09:41:07Z</time>
      </trkpt>
      <trkpt lat="44.8486" lon="4.68356">
        <ele>604</ele>
        <time>2011-03-27T09:41:10Z</time>
      </trkpt>
      <trkpt lat="44.84843" lon="4.68336">
        <ele>607</ele>
        <time>2011-03-27T09:41:39Z</time>
      </trkpt>
      <trkpt lat="44.84833" lon="4.68339">
        <ele>608</ele>
        <time>2011-03-27T09:41:52Z</time>
      </trkpt>
      <trkpt lat="44.84818" lon="4.68327">
        <ele>610</ele>
        <time>2011-03-27T09:42:11Z</time>
      </trkpt>
      <trkpt lat="44.84817" lon="4.68321">
        <ele>610</ele>
        <time>2011-03-27T09:42:18Z</time>
      </trkpt>
      <trkpt lat="44.84815" lon="4.6832">
        <ele>611</ele>
        <time>2011-03-27T09:42:24Z</time>
      </trkpt>
      <trkpt lat="44.8481" lon="4.68316">
        <ele>612</ele>
        <time>2011-03-27T09:42:30Z</time>
      </trkpt>
      <trkpt lat="44.848" lon="4.68313">
        <ele>612</ele>
        <time>2011-03-27T09:42:35Z</time>
      </trkpt>
      <trkpt lat="44.84794" lon="4.68321">
        <ele>613</ele>
        <time>2011-03-27T09:42:42Z</time>
      </trkpt>
      <trkpt lat="44.84741" lon="4.68344">
        <ele>612</ele>
        <time>2011-03-27T09:43:13Z</time>
      </trkpt>
      <trkpt lat="44.84714" lon="4.68346">
        <ele>609</ele>
        <time>2011-03-27T09:43:29Z</time>
      </trkpt>
      <trkpt lat="44.84709" lon="4.68352">
        <ele>608</ele>
        <time>2011-03-27T09:43:33Z</time>
      </trkpt>
      <trkpt lat="44.84671" lon="4.68357">
        <ele>604</ele>
        <time>2011-03-27T09:43:54Z</time>
      </trkpt>
      <trkpt lat="44.84667" lon="4.68352">
        <ele>603</ele>
        <time>2011-03-27T09:43:57Z</time>
      </trkpt>
      <trkpt lat="44.84655" lon="4.6835">
        <ele>601</ele>
        <time>2011-03-27T09:44:05Z</time>
      </trkpt>
      <trkpt lat="44.84634" lon="4.6835">
        <ele>598</ele>
        <time>2011-03-27T09:44:24Z</time>
      </trkpt>
      <trkpt lat="44.84637" lon="4.6835">
        <ele>594</ele>
        <time>2011-03-27T09:44:52Z</time>
      </trkpt>
      <trkpt lat="44.84636" lon="4.6835">
        <ele>592</ele>
        <time>2011-03-27T09:45:16Z</time>
      </trkpt>
      <trkpt lat="44.84633" lon="4.68354">
        <ele>585</ele>
        <time>2011-03-27T09:47:47Z</time>
      </trkpt>
      <trkpt lat="44.84624" lon="4.68352">
        <ele>585</ele>
        <time>2011-03-27T09:47:59Z</time>
      </trkpt>
      <trkpt lat="44.84607" lon="4.68357">
        <ele>583</ele>
        <time>2011-03-27T09:48:09Z</time>
      </trkpt>
      <trkpt lat="44.8456" lon="4.68351">
        <ele>575</ele>
        <time>2011-03-27T09:48:41Z</time>
      </trkpt>
      <trkpt lat="44.84549" lon="4.6835">
        <ele>573</ele>
        <time>2011-03-27T09:48:47Z</time>
      </trkpt>
      <trkpt lat="44.84463" lon="4.68347">
        <ele>563</ele>
        <time>2011-03-27T09:49:19Z</time>
      </trkpt>
      <trkpt lat="44.84378" lon="4.68351">
        <ele>551</ele>
        <time>2011-03-27T09:49:51Z</time>
      </trkpt>
      <trkpt lat="44.84355" lon="4.68346">
        <ele>536</ele>
        <time>2011-03-27T09:49:56Z</time>
      </trkpt>
      <trkpt lat="44.84337" lon="4.68345">
        <ele>535</ele>
        <time>2011-03-27T09:50:01Z</time>
      </trkpt>
      <trkpt lat="44.84331" lon="4.68338">
        <ele>533</ele>
        <time>2011-03-27T09:50:13Z</time>
      </trkpt>
      <trkpt lat="44.84316" lon="4.68337">
        <ele>531</ele>
        <time>2011-03-27T09:50:40Z</time>
      </trkpt>
      <trkpt lat="44.84237" lon="4.68291">
        <ele>521</ele>
        <time>2011-03-27T09:51:11Z</time>
      </trkpt>
      <trkpt lat="44.8422" lon="4.68272">
        <ele>518</ele>
        <time>2011-03-27T09:51:19Z</time>
      </trkpt>
      <trkpt lat="44.84209" lon="4.68256">
        <ele>507</ele>
        <time>2011-03-27T09:51:22Z</time>
      </trkpt>
      <trkpt lat="44.84203" lon="4.68252">
        <ele>506</ele>
        <time>2011-03-27T09:51:24Z</time>
      </trkpt>
      <trkpt lat="44.84193" lon="4.68251">
        <ele>501</ele>
        <time>2011-03-27T09:53:32Z</time>
      </trkpt>
      <trkpt lat="44.84139" lon="4.6824">
        <ele>496</ele>
        <time>2011-03-27T09:53:59Z</time>
      </trkpt>
      <trkpt lat="44.84128" lon="4.68236">
        <ele>493</ele>
        <time>2011-03-27T09:54:02Z</time>
      </trkpt>
      <trkpt lat="44.84097" lon="4.68245">
        <ele>482</ele>
        <time>2011-03-27T09:54:09Z</time>
      </trkpt>
      <trkpt lat="44.84079" lon="4.68254">
        <ele>481</ele>
        <time>2011-03-27T09:54:14Z</time>
      </trkpt>
      <trkpt lat="44.8404" lon="4.68296">
        <ele>474</ele>
        <time>2011-03-27T09:54:25Z</time>
      </trkpt>
      <trkpt lat="44.84018" lon="4.68375">
        <ele>472</ele>
        <time>2011-03-27T09:54:40Z</time>
      </trkpt>
      <trkpt lat="44.84016" lon="4.6841">
        <ele>469</ele>
        <time>2011-03-27T09:54:46Z</time>
      </trkpt>
      <trkpt lat="44.84009" lon="4.68423">
        <ele>469</ele>
        <time>2011-03-27T09:54:50Z</time>
      </trkpt>
      <trkpt lat="44.84001" lon="4.68432">
        <ele>468</ele>
        <time>2011-03-27T09:55:22Z</time>
      </trkpt>
      <trkpt lat="44.83999" lon="4.68439">
        <ele>468</ele>
        <time>2011-03-27T09:55:24Z</time>
      </trkpt>
      <trkpt lat="44.83962" lon="4.68581">
        <ele>456</ele>
        <time>2011-03-27T09:55:49Z</time>
      </trkpt>
      <trkpt lat="44.83965" lon="4.68595">
        <ele>456</ele>
        <time>2011-03-27T09:55:52Z</time>
      </trkpt>
      <trkpt lat="44.83976" lon="4.68683">
        <ele>452</ele>
        <time>2011-03-27T09:56:09Z</time>
      </trkpt>
      <trkpt lat="44.83984" lon="4.68711">
        <ele>446</ele>
        <time>2011-03-27T09:56:16Z</time>
      </trkpt>
      <trkpt lat="44.83988" lon="4.68732">
        <ele>445</ele>
        <time>2011-03-27T09:56:23Z</time>
      </trkpt>
      <trkpt lat="44.83986" lon="4.68793">
        <ele>441</ele>
        <time>2011-03-27T09:56:44Z</time>
      </trkpt>
      <trkpt lat="44.83978" lon="4.68848">
        <ele>435</ele>
        <time>2011-03-27T09:57:00Z</time>
      </trkpt>
      <trkpt lat="44.8398" lon="4.68868">
        <ele>428</ele>
        <time>2011-03-27T09:57:04Z</time>
      </trkpt>
      <trkpt lat="44.83974" lon="4.68962">
        <ele>421</ele>
        <time>2011-03-27T09:57:34Z</time>
      </trkpt>
      <trkpt lat="44.83933" lon="4.69012">
        <ele>410</ele>
        <time>2011-03-27T09:58:05Z</time>
      </trkpt>
      <trkpt lat="44.8392" lon="4.6903">
        <ele>405</ele>
        <time>2011-03-27T09:58:38Z</time>
      </trkpt>
      <trkpt lat="44.83895" lon="4.6912">
        <ele>396</ele>
        <time>2011-03-27T09:59:10Z</time>
      </trkpt>
      <trkpt lat="44.83888" lon="4.69132">
        <ele>395</ele>
        <time>2011-03-27T09:59:14Z</time>
      </trkpt>
      <trkpt lat="44.83886" lon="4.69134">
        <ele>394</ele>
        <time>2011-03-27T09:59:32Z</time>
      </trkpt>
      <trkpt lat="44.83883" lon="4.69133">
        <ele>389</ele>
        <time>2011-03-27T10:00:35Z</time>
      </trkpt>
      <trkpt lat="44.83882" lon="4.69141">
        <ele>387</ele>
        <time>2011-03-27T10:01:33Z</time>
      </trkpt>
      <trkpt lat="44.83879" lon="4.69148">
        <ele>386</ele>
        <time>2011-03-27T10:01:35Z</time>
      </trkpt>
      <trkpt lat="44.83836" lon="4.69189">
        <ele>380</ele>
        <time>2011-03-27T10:01:55Z</time>
      </trkpt>
      <trkpt lat="44.83823" lon="4.69186">
        <ele>376</ele>
        <time>2011-03-27T10:02:08Z</time>
      </trkpt>
      <trkpt lat="44.83811" lon="4.69192">
        <ele>370</ele>
        <time>2011-03-27T10:02:34Z</time>
      </trkpt>
      <trkpt lat="44.83803" lon="4.69202">
        <ele>368</ele>
        <time>2011-03-27T10:02:49Z</time>
      </trkpt>
      <trkpt lat="44.83806" lon="4.69218">
        <ele>367</ele>
        <time>2011-03-27T10:02:54Z</time>
      </trkpt>
      <trkpt lat="44.83814" lon="4.69255">
        <ele>363</ele>
        <time>2011-03-27T10:03:06Z</time>
      </trkpt>
      <trkpt lat="44.83813" lon="4.69262">
        <ele>362</ele>
        <time>2011-03-27T10:03:09Z</time>
      </trkpt>
      <trkpt lat="44.83808" lon="4.69263">
        <ele>361</ele>
        <time>2011-03-27T10:03:12Z</time>
      </trkpt>
      <trkpt lat="44.83809" lon="4.6927">
        <ele>360</ele>
        <time>2011-03-27T10:03:15Z</time>
      </trkpt>
      <trkpt lat="44.83816" lon="4.69281">
        <ele>358</ele>
        <time>2011-03-27T10:03:19Z</time>
      </trkpt>
      <trkpt lat="44.83815" lon="4.69291">
        <ele>357</ele>
        <time>2011-03-27T10:03:22Z</time>
      </trkpt>
      <trkpt lat="44.83811" lon="4.69299">
        <ele>353</ele>
        <time>2011-03-27T10:03:24Z</time>
      </trkpt>
      <trkpt lat="44.83748" lon="4.69341">
        <ele>339</ele>
        <time>2011-03-27T10:03:45Z</time>
      </trkpt>
      <trkpt lat="44.83727" lon="4.69345">
        <ele>339</ele>
        <time>2011-03-27T10:03:49Z</time>
      </trkpt>
      <trkpt lat="44.83704" lon="4.69353">
        <ele>337</ele>
        <time>2011-03-27T10:03:53Z</time>
      </trkpt>
      <trkpt lat="44.83694" lon="4.69376">
        <ele>337</ele>
        <time>2011-03-27T10:03:58Z</time>
      </trkpt>
      <trkpt lat="44.83691" lon="4.69379">
        <ele>336</ele>
        <time>2011-03-27T10:03:59Z</time>
      </trkpt>
      <trkpt lat="44.8355" lon="4.69441">
        <ele>325</ele>
        <time>2011-03-27T10:04:31Z</time>
      </trkpt>
      <trkpt lat="44.83554" lon="4.69453">
        <ele>325</ele>
        <time>2011-03-27T10:04:34Z</time>
      </trkpt>
      <trkpt lat="44.83557" lon="4.69466">
        <ele>325</ele>
        <time>2011-03-27T10:04:37Z</time>
      </trkpt>
      <trkpt lat="44.83559" lon="4.69492">
        <ele>324</ele>
        <time>2011-03-27T10:04:42Z</time>
      </trkpt>
      <trkpt lat="44.83557" lon="4.69508">
        <ele>323</ele>
        <time>2011-03-27T10:04:47Z</time>
      </trkpt>
      <trkpt lat="44.83537" lon="4.69552">
        <ele>320</ele>
        <time>2011-03-27T10:04:59Z</time>
      </trkpt>
      <trkpt lat="44.83531" lon="4.6956">
        <ele>317</ele>
        <time>2011-03-27T10:05:01Z</time>
      </trkpt>
      <trkpt lat="44.83521" lon="4.69574">
        <ele>316</ele>
        <time>2011-03-27T10:05:05Z</time>
      </trkpt>
      <trkpt lat="44.8351" lon="4.6958">
        <ele>312</ele>
        <time>2011-03-27T10:05:08Z</time>
      </trkpt>
      <trkpt lat="44.83501" lon="4.69589">
        <ele>311</ele>
        <time>2011-03-27T10:05:12Z</time>
      </trkpt>
      <trkpt lat="44.83499" lon="4.69601">
        <ele>311</ele>
        <time>2011-03-27T10:05:16Z</time>
      </trkpt>
      <trkpt lat="44.83498" lon="4.69624">
        <ele>310</ele>
        <time>2011-03-27T10:05:23Z</time>
      </trkpt>
      <trkpt lat="44.8349" lon="4.69647">
        <ele>309</ele>
        <time>2011-03-27T10:05:28Z</time>
      </trkpt>
      <trkpt lat="44.8346" lon="4.69695">
        <ele>300</ele>
        <time>2011-03-27T10:05:36Z</time>
      </trkpt>
      <trkpt lat="44.83441" lon="4.69692">
        <ele>300</ele>
        <time>2011-03-27T10:05:42Z</time>
      </trkpt>
      <trkpt lat="44.83413" lon="4.69684">
        <ele>299</ele>
        <time>2011-03-27T10:05:52Z</time>
      </trkpt>
      <trkpt lat="44.83398" lon="4.69683">
        <ele>296</ele>
        <time>2011-03-27T10:05:55Z</time>
      </trkpt>
      <trkpt lat="44.83392" lon="4.69689">
        <ele>295</ele>
        <time>2011-03-27T10:05:57Z</time>
      </trkpt>
      <trkpt lat="44.83387" lon="4.69699">
        <ele>293</ele>
        <time>2011-03-27T10:05:59Z</time>
      </trkpt>
      <trkpt lat="44.83371" lon="4.69727">
        <ele>293</ele>
        <time>2011-03-27T10:06:06Z</time>
      </trkpt>
      <trkpt lat="44.83357" lon="4.69735">
        <ele>293</ele>
        <time>2011-03-27T10:06:10Z</time>
      </trkpt>
      <trkpt lat="44.83294" lon="4.69737">
        <ele>285</ele>
        <time>2011-03-27T10:06:24Z</time>
      </trkpt>
      <trkpt lat="44.83198" lon="4.69709">
        <ele>283</ele>
        <time>2011-03-27T10:06:54Z</time>
      </trkpt>
      <trkpt lat="44.83166" lon="4.69705">
        <ele>282</ele>
        <time>2011-03-27T10:07:15Z</time>
      </trkpt>
      <trkpt lat="44.83157" lon="4.69711">
        <ele>283</ele>
        <time>2011-03-27T10:10:07Z</time>
      </trkpt>
      <trkpt lat="44.83153" lon="4.69715">
        <ele>282</ele>
        <time>2011-03-27T10:10:09Z</time>
      </trkpt>
      <trkpt lat="44.83141" lon="4.69735">
        <ele>282</ele>
        <time>2011-03-27T10:10:17Z</time>
      </trkpt>
      <trkpt lat="44.83129" lon="4.69741">
        <ele>282</ele>
        <time>2011-03-27T10:10:21Z</time>
      </trkpt>
      <trkpt lat="44.83094" lon="4.69755">
        <ele>273</ele>
        <time>2011-03-27T10:10:28Z</time>
      </trkpt>
      <trkpt lat="44.83081" lon="4.69768">
        <ele>273</ele>
        <time>2011-03-27T10:10:32Z</time>
      </trkpt>
      <trkpt lat="44.83064" lon="4.69775">
        <ele>269</ele>
        <time>2011-03-27T10:10:36Z</time>
      </trkpt>
      <trkpt lat="44.83042" lon="4.69774">
        <ele>268</ele>
        <time>2011-03-27T10:10:49Z</time>
      </trkpt>
      <trkpt lat="44.83032" lon="4.69778">
        <ele>267</ele>
        <time>2011-03-27T10:10:57Z</time>
      </trkpt>
      <trkpt lat="44.83023" lon="4.69773">
        <ele>264</ele>
        <time>2011-03-27T10:12:37Z</time>
      </trkpt>
      <trkpt lat="44.82966" lon="4.69733">
        <ele>259</ele>
        <time>2011-03-27T10:13:08Z</time>
      </trkpt>
      <trkpt lat="44.82946" lon="4.69743">
        <ele>256</ele>
        <time>2011-03-27T10:13:18Z</time>
      </trkpt>
      <trkpt lat="44.82938" lon="4.69754">
        <ele>255</ele>
        <time>2011-03-27T10:13:22Z</time>
      </trkpt>
      <trkpt lat="44.82931" lon="4.69756">
        <ele>253</ele>
        <time>2011-03-27T10:13:29Z</time>
      </trkpt>
      <trkpt lat="44.82923" lon="4.69751">
        <ele>251</ele>
        <time>2011-03-27T10:13:36Z</time>
      </trkpt>
      <trkpt lat="44.82916" lon="4.69742">
        <ele>245</ele>
        <time>2011-03-27T10:14:54Z</time>
      </trkpt>
      <trkpt lat="44.82907" lon="4.69737">
        <ele>244</ele>
        <time>2011-03-27T10:14:58Z</time>
      </trkpt>
      <trkpt lat="44.82837" lon="4.69715">
        <ele>238</ele>
        <time>2011-03-27T10:15:24Z</time>
      </trkpt>
      <trkpt lat="44.82825" lon="4.69717">
        <ele>233</ele>
        <time>2011-03-27T10:15:27Z</time>
      </trkpt>
      <trkpt lat="44.82799" lon="4.69719">
        <ele>231</ele>
        <time>2011-03-27T10:15:35Z</time>
      </trkpt>
      <trkpt lat="44.82795" lon="4.6972">
        <ele>222</ele>
        <time>2011-03-27T10:17:16Z</time>
      </trkpt>
      <trkpt lat="44.82773" lon="4.69717">
        <ele>219</ele>
        <time>2011-03-27T10:17:31Z</time>
      </trkpt>
      <trkpt lat="44.82752" lon="4.69728">
        <ele>216</ele>
        <time>2011-03-27T10:17:40Z</time>
      </trkpt>
      <trkpt lat="44.82747" lon="4.69724">
        <ele>215</ele>
        <time>2011-03-27T10:17:43Z</time>
      </trkpt>
      <trkpt lat="44.82736" lon="4.69729">
        <ele>214</ele>
        <time>2011-03-27T10:17:49Z</time>
      </trkpt>
      <trkpt lat="44.82733" lon="4.69736">
        <ele>213</ele>
        <time>2011-03-27T10:17:51Z</time>
      </trkpt>
      <trkpt lat="44.82728" lon="4.69738">
        <ele>213</ele>
        <time>2011-03-27T10:17:53Z</time>
      </trkpt>
      <trkpt lat="44.82722" lon="4.69739">
        <ele>212</ele>
        <time>2011-03-27T10:17:55Z</time>
      </trkpt>
      <trkpt lat="44.82717" lon="4.69741">
        <ele>210</ele>
        <time>2011-03-27T10:18:09Z</time>
      </trkpt>
      <trkpt lat="44.82681" lon="4.69767">
        <ele>205</ele>
        <time>2011-03-27T10:18:29Z</time>
      </trkpt>
      <trkpt lat="44.82662" lon="4.69777">
        <ele>197</ele>
        <time>2011-03-27T10:19:00Z</time>
      </trkpt>
      <trkpt lat="44.82633" lon="4.69782">
        <ele>193</ele>
        <time>2011-03-27T10:19:12Z</time>
      </trkpt>
      <trkpt lat="44.82616" lon="4.6978">
        <ele>183</ele>
        <time>2011-03-27T10:19:16Z</time>
      </trkpt>
      <trkpt lat="44.8261" lon="4.69778">
        <ele>182</ele>
        <time>2011-03-27T10:19:18Z</time>
      </trkpt>
      <trkpt lat="44.82606" lon="4.69773">
        <ele>182</ele>
        <time>2011-03-27T10:19:21Z</time>
      </trkpt>
      <trkpt lat="44.826" lon="4.69773">
        <ele>178</ele>
        <time>2011-03-27T10:21:40Z</time>
      </trkpt>
      <trkpt lat="44.82597" lon="4.69767">
        <ele>177</ele>
        <time>2011-03-27T10:21:42Z</time>
      </trkpt>
      <trkpt lat="44.82595" lon="4.6976">
        <ele>177</ele>
        <time>2011-03-27T10:21:44Z</time>
      </trkpt>
      <trkpt lat="44.82596" lon="4.69618">
        <ele>167</ele>
        <time>2011-03-27T10:22:03Z</time>
      </trkpt>
      <trkpt lat="44.82581" lon="4.6958">
        <ele>167</ele>
        <time>2011-03-27T10:22:15Z</time>
      </trkpt>
      <trkpt lat="44.82582" lon="4.69573">
        <ele>165</ele>
        <time>2011-03-27T10:22:48Z</time>
      </trkpt>
      <trkpt lat="44.82585" lon="4.6957">
        <ele>165</ele>
        <time>2011-03-27T10:22:52Z</time>
      </trkpt>
      <trkpt lat="44.82588" lon="4.69565">
        <ele>164</ele>
        <time>2011-03-27T10:24:00Z</time>
      </trkpt>
      <trkpt lat="44.8259" lon="4.69562">
        <ele>165</ele>
        <time>2011-03-27T10:25:40Z</time>
      </trkpt>
      <trkpt lat="44.82589" lon="4.69562">
        <ele>160</ele>
        <time>2011-03-27T10:27:46Z</time>
      </trkpt>
    </trkseg>
  </trk>
</gpx>